OCN155 VRMM-EDDF
Flight info
| Callsign | OCN155 |
|---|---|
| Flight time | 10h 45m |
| Altitude | 38000 |
| Route | ELBET1B ELBET L894 BOLUR T208 ASPUX L425 BOVOS DCT GOBRO DCT KITUB Y511 PMA Z712 WEJ L677 CVO L617 TANSA L613 YNN L611 TUMBO DCT PAPIZ L613 UTAME DCT BASOG DCT BRENO M726 ERNAS Y101 ERMEL Q162 SPESA SPESA4B |
| Aircraft | A333/H-SDE2E3FGHIJ3J4J5LM1OP2RWXYZ/LB2D1 |
Departure
| Time | 2026-04-13 23:28 |
|---|---|
| Airport | Velana International Airport (VRMM) |
Arrival
| Time | 2026-04-14 10:13 |
|---|---|
| Airport | Frankfurt Main Airport (EDDF) |
| Time | Latitude | Longitude | Altitude | Speed | Heading |
|---|---|---|---|---|---|
| 2026-04-13 23:05 | 4.18213 | 73.52777 | 16 ft | 0 kts | 269° |
| 2026-04-13 23:14 | 4.18213 | 73.52782 | 16 ft | 4 kts | 269° |
| 2026-04-13 23:14 | 4.18213 | 73.52809 | 16 ft | 4 kts | 269° |
| 2026-04-13 23:14 | 4.18213 | 73.52834 | 17 ft | 4 kts | 283° |
| 2026-04-13 23:15 | 4.18201 | 73.52854 | 19 ft | 4 kts | 332° |
| 2026-04-13 23:15 | 4.18175 | 73.52862 | 17 ft | 4 kts | 354° |
| 2026-04-13 23:15 | 4.18149 | 73.52863 | 18 ft | 3 kts | 359° |
| 2026-04-13 23:15 | 4.18144 | 73.52863 | 17 ft | 0 kts | 359° |
| 2026-04-13 23:19 | 4.18145 | 73.52863 | 17 ft | 0 kts | 359° |
| 2026-04-13 23:19 | 4.18149 | 73.52863 | 18 ft | 1 kts | 359° |
| 2026-04-13 23:19 | 4.18158 | 73.52863 | 17 ft | 2 kts | 359° |
| 2026-04-13 23:19 | 4.18172 | 73.52863 | 17 ft | 2 kts | 359° |
| 2026-04-13 23:20 | 4.18208 | 73.52862 | 18 ft | 7 kts | 359° |
| 2026-04-13 23:20 | 4.18261 | 73.52861 | 16 ft | 8 kts | 359° |
| 2026-04-13 23:20 | 4.18318 | 73.52860 | 16 ft | 8 kts | 359° |
| 2026-04-13 23:20 | 4.18391 | 73.52859 | 16 ft | 11 kts | 359° |
| 2026-04-13 23:21 | 4.18463 | 73.52878 | 16 ft | 11 kts | 35° |
| 2026-04-13 23:21 | 4.18522 | 73.52915 | 16 ft | 9 kts | 16° |
| 2026-04-13 23:21 | 4.18591 | 73.52924 | 16 ft | 11 kts | 2° |
| 2026-04-13 23:21 | 4.18679 | 73.52923 | 16 ft | 14 kts | 360° |
| 2026-04-13 23:22 | 4.18792 | 73.52921 | 16 ft | 18 kts | 359° |
| 2026-04-13 23:22 | 4.18931 | 73.52919 | 16 ft | 23 kts | 359° |
| 2026-04-13 23:22 | 4.19093 | 73.52918 | 16 ft | 23 kts | 359° |
| 2026-04-13 23:22 | 4.19257 | 73.52914 | 16 ft | 24 kts | 360° |
| 2026-04-13 23:23 | 4.19428 | 73.52911 | 16 ft | 25 kts | 356° |
| 2026-04-13 23:23 | 4.19608 | 73.52907 | 16 ft | 26 kts | 359° |
| 2026-04-13 23:23 | 4.19793 | 73.52905 | 16 ft | 26 kts | 359° |
| 2026-04-13 23:23 | 4.19975 | 73.52901 | 16 ft | 26 kts | 359° |
| 2026-04-13 23:24 | 4.20160 | 73.52898 | 16 ft | 27 kts | 359° |
| 2026-04-13 23:24 | 4.20535 | 73.52893 | 16 ft | 26 kts | 359° |
| 2026-04-13 23:24 | 4.20717 | 73.52890 | 16 ft | 26 kts | 359° |
| 2026-04-13 23:25 | 4.20835 | 73.52900 | 16 ft | 25 kts | 10° |
| 2026-04-13 23:25 | 4.21006 | 73.52942 | 16 ft | 25 kts | 15° |
| 2026-04-13 23:25 | 4.21196 | 73.52992 | 16 ft | 11 kts | 14° |
| 2026-04-13 23:25 | 4.21242 | 73.53044 | 16 ft | 10 kts | 73° |
| 2026-04-13 23:26 | 4.21238 | 73.53082 | 16 ft | 7 kts | 117° |
| 2026-04-13 23:26 | 4.21199 | 73.53102 | 16 ft | 6 kts | 176° |
| 2026-04-13 23:26 | 4.21183 | 73.53102 | 16 ft | 0 kts | 180° |
| 2026-04-13 23:26 | 4.21178 | 73.53102 | 16 ft | 1 kts | 180° |
| 2026-04-13 23:27 | 4.21169 | 73.53102 | 16 ft | 2 kts | 180° |
| 2026-04-13 23:27 | 4.21082 | 73.53101 | 16 ft | 34 kts | 180° |
| 2026-04-13 23:27 | 4.20639 | 73.53100 | 16 ft | 92 kts | 179° |
| 2026-04-13 23:27 | 4.19815 | 73.53100 | 16 ft | 143 kts | 179° |
| 2026-04-13 23:28 | 4.18674 | 73.53104 | 198 ft | 175 kts | 181° |
| 2026-04-13 23:28 | 4.17439 | 73.53125 | 926 ft | 174 kts | 180° |
| 2026-04-13 23:28 | 4.16251 | 73.53177 | 1779 ft | 169 kts | 180° |
| 2026-04-13 23:28 | 4.15041 | 73.53205 | 2098 ft | 185 kts | 182° |
| 2026-04-13 23:29 | 4.13678 | 73.53177 | 2332 ft | 207 kts | 182° |
| 2026-04-13 23:29 | 4.12161 | 73.53144 | 2543 ft | 230 kts | 181° |
| 2026-04-13 23:29 | 4.10480 | 73.53124 | 2757 ft | 252 kts | 181° |
| 2026-04-13 23:29 | 4.08688 | 73.53115 | 3189 ft | 262 kts | 180° |
| 2026-04-13 23:30 | 4.06844 | 73.53111 | 3733 ft | 267 kts | 180° |
| 2026-04-13 23:30 | 4.04973 | 73.53110 | 4323 ft | 271 kts | 180° |
| 2026-04-13 23:30 | 4.03075 | 73.53110 | 4921 ft | 274 kts | 179° |
| 2026-04-13 23:30 | 4.01149 | 73.53078 | 5481 ft | 279 kts | 184° |
| 2026-04-13 23:31 | 3.99278 | 73.52552 | 6093 ft | 284 kts | 209° |
| 2026-04-13 23:31 | 3.97839 | 73.51210 | 6677 ft | 288 kts | 239° |
| 2026-04-13 23:31 | 3.97223 | 73.49316 | 7257 ft | 289 kts | 265° |
| 2026-04-13 23:31 | 3.97152 | 73.47290 | 7879 ft | 291 kts | 270° |
| 2026-04-13 23:32 | 3.97179 | 73.45249 | 8505 ft | 294 kts | 271° |
| 2026-04-13 23:32 | 3.97207 | 73.43215 | 9131 ft | 297 kts | 271° |
| 2026-04-13 23:32 | 3.97226 | 73.41124 | 9755 ft | 301 kts | 270° |
| 2026-04-13 23:32 | 3.97235 | 73.39010 | 10237 ft | 308 kts | 270° |
| 2026-04-13 23:33 | 3.97239 | 73.36811 | 10482 ft | 324 kts | 270° |
| 2026-04-13 23:33 | 3.97240 | 73.34487 | 10713 ft | 340 kts | 270° |
| 2026-04-13 23:33 | 3.97239 | 73.32061 | 10928 ft | 355 kts | 270° |
| 2026-04-13 23:33 | 3.97237 | 73.29532 | 11168 ft | 369 kts | 270° |
| 2026-04-13 23:34 | 3.97234 | 73.26934 | 11558 ft | 376 kts | 270° |
| 2026-04-13 23:34 | 3.97274 | 73.24326 | 12034 ft | 381 kts | 274° |
| 2026-04-13 23:34 | 3.97692 | 73.21698 | 12524 ft | 384 kts | 286° |
| 2026-04-13 23:34 | 3.98685 | 73.19206 | 13031 ft | 386 kts | 300° |
| 2026-04-13 23:35 | 4.00232 | 73.17010 | 13537 ft | 387 kts | 314° |
| 2026-04-13 23:35 | 4.02254 | 73.15226 | 14011 ft | 388 kts | 327° |
| 2026-04-13 23:35 | 4.04550 | 73.13792 | 14468 ft | 390 kts | 332° |
| 2026-04-13 23:35 | 4.06910 | 73.12438 | 14921 ft | 393 kts | 332° |
| 2026-04-13 23:36 | 4.09297 | 73.11078 | 15376 ft | 396 kts | 332° |
| 2026-04-13 23:36 | 4.11665 | 73.09720 | 15824 ft | 398 kts | 332° |
| 2026-04-13 23:36 | 4.14081 | 73.08328 | 16269 ft | 401 kts | 332° |
| 2026-04-13 23:36 | 4.16513 | 73.06923 | 16715 ft | 404 kts | 332° |
| 2026-04-13 23:37 | 4.18963 | 73.05504 | 17150 ft | 407 kts | 332° |
| 2026-04-13 23:37 | 4.21441 | 73.04068 | 17580 ft | 410 kts | 332° |
| 2026-04-13 23:37 | 4.23924 | 73.02628 | 18009 ft | 413 kts | 332° |
| 2026-04-13 23:37 | 4.26397 | 73.01193 | 18387 ft | 416 kts | 332° |
| 2026-04-13 23:38 | 4.28918 | 72.99730 | 18752 ft | 419 kts | 332° |
| 2026-04-13 23:38 | 4.31449 | 72.98261 | 19117 ft | 421 kts | 332° |
| 2026-04-13 23:38 | 4.33990 | 72.96786 | 19476 ft | 423 kts | 332° |
| 2026-04-13 23:38 | 4.36542 | 72.95304 | 19831 ft | 425 kts | 332° |
| 2026-04-13 23:39 | 4.39114 | 72.93811 | 20181 ft | 427 kts | 332° |
| 2026-04-13 23:39 | 4.41694 | 72.92313 | 20511 ft | 430 kts | 332° |
| 2026-04-13 23:39 | 4.44259 | 72.90824 | 20848 ft | 432 kts | 332° |
| 2026-04-13 23:39 | 4.46877 | 72.89303 | 21181 ft | 434 kts | 332° |
| 2026-04-13 23:40 | 4.49504 | 72.87778 | 21515 ft | 436 kts | 332° |
| 2026-04-13 23:40 | 4.52147 | 72.86243 | 21846 ft | 438 kts | 332° |
| 2026-04-13 23:40 | 4.54791 | 72.84707 | 22171 ft | 441 kts | 332° |
| 2026-04-13 23:40 | 4.57415 | 72.83183 | 22477 ft | 443 kts | 332° |
| 2026-04-13 23:41 | 4.60093 | 72.81627 | 22782 ft | 445 kts | 332° |
| 2026-04-13 23:41 | 4.62783 | 72.80064 | 23107 ft | 447 kts | 332° |
| 2026-04-13 23:41 | 4.65481 | 72.78496 | 23402 ft | 449 kts | 332° |
| 2026-04-13 23:41 | 4.68191 | 72.76921 | 23660 ft | 451 kts | 332° |
| 2026-04-13 23:42 | 4.70916 | 72.75338 | 23920 ft | 453 kts | 332° |
| 2026-04-13 23:42 | 4.73614 | 72.73769 | 24200 ft | 454 kts | 332° |
| 2026-04-13 23:42 | 4.76356 | 72.72175 | 24462 ft | 456 kts | 332° |
| 2026-04-13 23:42 | 4.79108 | 72.70576 | 24745 ft | 457 kts | 332° |
| 2026-04-13 23:43 | 4.81870 | 72.68970 | 25018 ft | 458 kts | 332° |
| 2026-04-13 23:43 | 4.84635 | 72.67362 | 25301 ft | 460 kts | 332° |
| 2026-04-13 23:43 | 4.87412 | 72.65747 | 25571 ft | 461 kts | 332° |
| 2026-04-13 23:43 | 4.90203 | 72.64124 | 25848 ft | 463 kts | 332° |
| 2026-04-13 23:44 | 4.92957 | 72.62522 | 26115 ft | 464 kts | 332° |
| 2026-04-13 23:44 | 4.95762 | 72.60890 | 26392 ft | 466 kts | 331° |
| 2026-04-13 23:44 | 4.98574 | 72.59255 | 26678 ft | 467 kts | 331° |
| 2026-04-13 23:44 | 5.01396 | 72.57613 | 26944 ft | 469 kts | 331° |
| 2026-04-13 23:45 | 5.04226 | 72.55966 | 27207 ft | 471 kts | 331° |
| 2026-04-13 23:45 | 5.07067 | 72.54313 | 27476 ft | 472 kts | 331° |
| 2026-04-13 23:45 | 5.09918 | 72.52654 | 27732 ft | 474 kts | 331° |
| 2026-04-13 23:45 | 5.12783 | 72.50986 | 27988 ft | 475 kts | 331° |
| 2026-04-13 23:46 | 5.15612 | 72.49340 | 28239 ft | 477 kts | 331° |
| 2026-04-13 23:46 | 5.18489 | 72.47665 | 28493 ft | 478 kts | 331° |
| 2026-04-13 23:46 | 5.21385 | 72.45978 | 28753 ft | 480 kts | 331° |
| 2026-04-13 23:46 | 5.24287 | 72.44289 | 28997 ft | 482 kts | 330° |
| 2026-04-13 23:47 | 5.27159 | 72.42616 | 29235 ft | 483 kts | 330° |
| 2026-04-13 23:47 | 5.30085 | 72.40912 | 29491 ft | 485 kts | 330° |
| 2026-04-13 23:47 | 5.33018 | 72.39204 | 29745 ft | 486 kts | 330° |
| 2026-04-13 23:47 | 5.35913 | 72.37517 | 29955 ft | 488 kts | 330° |
| 2026-04-13 23:48 | 5.38856 | 72.35803 | 30151 ft | 489 kts | 330° |
| 2026-04-13 23:48 | 5.41818 | 72.34077 | 30334 ft | 491 kts | 330° |
| 2026-04-13 23:48 | 5.44790 | 72.32345 | 30526 ft | 492 kts | 330° |
| 2026-04-13 23:48 | 5.47721 | 72.30637 | 30758 ft | 492 kts | 330° |
| 2026-04-13 23:49 | 5.50695 | 72.28903 | 31043 ft | 491 kts | 330° |
| 2026-04-13 23:49 | 5.53651 | 72.27180 | 31331 ft | 490 kts | 330° |
| 2026-04-13 23:49 | 5.56609 | 72.25455 | 31606 ft | 490 kts | 330° |
| 2026-04-13 23:49 | 5.59559 | 72.23735 | 31907 ft | 488 kts | 330° |
| 2026-04-13 23:50 | 5.62456 | 72.22046 | 32180 ft | 487 kts | 330° |
| 2026-04-13 23:50 | 5.65386 | 72.20337 | 32448 ft | 487 kts | 330° |
| 2026-04-13 23:50 | 5.68330 | 72.18620 | 32710 ft | 486 kts | 330° |
| 2026-04-13 23:50 | 5.71254 | 72.16915 | 32959 ft | 486 kts | 330° |
| 2026-04-13 23:51 | 5.74187 | 72.15203 | 33220 ft | 486 kts | 330° |
| 2026-04-13 23:51 | 5.77076 | 72.13517 | 33481 ft | 485 kts | 330° |
| 2026-04-13 23:51 | 5.79993 | 72.11816 | 33733 ft | 485 kts | 330° |
| 2026-04-13 23:51 | 5.82921 | 72.10107 | 33942 ft | 485 kts | 330° |
| 2026-04-13 23:52 | 5.85841 | 72.08402 | 34150 ft | 485 kts | 330° |
| 2026-04-13 23:52 | 5.88757 | 72.06700 | 34371 ft | 484 kts | 330° |
| 2026-04-13 23:52 | 5.91685 | 72.05015 | 34581 ft | 483 kts | 333° |
| 2026-04-13 23:52 | 5.94692 | 72.03508 | 34808 ft | 482 kts | 335° |
| 2026-04-13 23:53 | 5.97692 | 72.02082 | 35016 ft | 482 kts | 335° |
| 2026-04-13 23:53 | 6.00727 | 72.00647 | 35219 ft | 481 kts | 335° |
| 2026-04-13 23:53 | 6.03760 | 71.99210 | 35438 ft | 480 kts | 335° |
| 2026-04-13 23:53 | 6.06786 | 71.97772 | 35638 ft | 480 kts | 335° |
| 2026-04-13 23:54 | 6.09810 | 71.96331 | 35844 ft | 479 kts | 335° |
| 2026-04-13 23:54 | 6.12830 | 71.94892 | 36034 ft | 479 kts | 335° |
| 2026-04-13 23:54 | 6.15803 | 71.93474 | 36212 ft | 478 kts | 335° |
| 2026-04-13 23:54 | 6.18820 | 71.92034 | 36368 ft | 479 kts | 335° |
| 2026-04-13 23:55 | 6.21832 | 71.90596 | 36550 ft | 478 kts | 335° |
| 2026-04-13 23:55 | 6.24830 | 71.89165 | 36829 ft | 476 kts | 335° |
| 2026-04-13 23:55 | 6.27828 | 71.87733 | 37040 ft | 474 kts | 335° |
| 2026-04-13 23:55 | 6.30769 | 71.86328 | 37201 ft | 474 kts | 335° |
| 2026-04-13 23:56 | 6.33751 | 71.84904 | 37348 ft | 474 kts | 335° |
| 2026-04-13 23:56 | 6.36686 | 71.83371 | 37508 ft | 474 kts | 329° |
| 2026-04-13 23:56 | 6.39426 | 71.81512 | 37646 ft | 475 kts | 324° |
| 2026-04-13 23:56 | 6.42075 | 71.79531 | 37808 ft | 474 kts | 323° |
| 2026-04-13 23:57 | 6.47252 | 71.75453 | 37891 ft | 474 kts | 322° |
| 2026-04-13 23:57 | 6.52434 | 71.71325 | 37892 ft | 473 kts | 323° |
| 2026-04-13 23:58 | 6.57599 | 71.67249 | 37892 ft | 474 kts | 323° |
| 2026-04-13 23:58 | 6.62800 | 71.63169 | 37892 ft | 474 kts | 323° |
| 2026-04-13 23:59 | 6.68011 | 71.59088 | 37892 ft | 474 kts | 323° |
| 2026-04-13 23:59 | 6.73226 | 71.55002 | 37893 ft | 474 kts | 323° |
| 2026-04-14 00:00 | 6.78382 | 71.50959 | 37895 ft | 471 kts | 323° |
| 2026-04-14 00:00 | 6.83559 | 71.46898 | 37895 ft | 471 kts | 323° |
| 2026-04-14 00:01 | 6.88704 | 71.42861 | 37892 ft | 472 kts | 323° |
| 2026-04-14 00:01 | 6.93892 | 71.38790 | 37890 ft | 472 kts | 323° |
| 2026-04-14 00:02 | 6.99077 | 71.34719 | 37892 ft | 472 kts | 323° |
| 2026-04-14 00:02 | 7.04268 | 71.30642 | 37893 ft | 472 kts | 323° |
| 2026-04-14 00:03 | 7.09425 | 71.26591 | 37895 ft | 472 kts | 323° |
| 2026-04-14 00:03 | 7.14620 | 71.22509 | 37895 ft | 472 kts | 323° |
| 2026-04-14 00:04 | 7.19778 | 71.18455 | 37894 ft | 472 kts | 323° |
| 2026-04-14 00:04 | 7.24982 | 71.14364 | 37893 ft | 474 kts | 323° |
| 2026-04-14 00:05 | 7.30197 | 71.10263 | 37889 ft | 475 kts | 322° |
| 2026-04-14 00:05 | 7.35379 | 71.06185 | 37889 ft | 475 kts | 323° |
| 2026-04-14 00:06 | 7.40602 | 71.02075 | 37889 ft | 475 kts | 322° |
| 2026-04-14 00:06 | 7.45816 | 70.97971 | 37889 ft | 475 kts | 322° |
| 2026-04-14 00:07 | 7.50996 | 70.93892 | 37893 ft | 475 kts | 322° |
| 2026-04-14 00:07 | 7.56210 | 70.89780 | 37892 ft | 475 kts | 322° |
| 2026-04-14 00:08 | 7.60539 | 70.86365 | 37893 ft | 475 kts | 322° |
| 2026-04-14 00:08 | 7.65754 | 70.82249 | 37892 ft | 475 kts | 322° |
| 2026-04-14 00:09 | 7.70937 | 70.78157 | 37893 ft | 475 kts | 322° |
| 2026-04-14 00:09 | 7.76159 | 70.74034 | 37890 ft | 475 kts | 322° |
| 2026-04-14 00:10 | 7.81341 | 70.69941 | 37893 ft | 475 kts | 322° |
| 2026-04-14 00:10 | 7.86554 | 70.65822 | 37892 ft | 475 kts | 322° |
| 2026-04-14 00:11 | 7.91757 | 70.61710 | 37892 ft | 475 kts | 322° |
| 2026-04-14 00:11 | 7.96975 | 70.57584 | 37893 ft | 476 kts | 322° |
| 2026-04-14 00:12 | 8.02188 | 70.53462 | 37890 ft | 476 kts | 322° |
| 2026-04-14 00:12 | 8.07380 | 70.49357 | 37890 ft | 476 kts | 322° |
| 2026-04-14 00:13 | 8.12612 | 70.45214 | 37892 ft | 476 kts | 322° |
| 2026-04-14 00:13 | 8.17810 | 70.41098 | 37893 ft | 476 kts | 322° |
| 2026-04-14 00:14 | 8.23035 | 70.36959 | 37892 ft | 476 kts | 321° |
| 2026-04-14 00:14 | 8.28226 | 70.32847 | 37893 ft | 476 kts | 321° |
| 2026-04-14 00:15 | 8.33449 | 70.28708 | 37891 ft | 476 kts | 321° |
| 2026-04-14 00:15 | 8.38668 | 70.24570 | 37893 ft | 476 kts | 321° |
| 2026-04-14 00:16 | 8.43862 | 70.20451 | 37892 ft | 476 kts | 321° |
| 2026-04-14 00:16 | 8.49086 | 70.16306 | 37896 ft | 477 kts | 321° |
| 2026-04-14 00:17 | 8.54273 | 70.12189 | 37895 ft | 477 kts | 321° |
| 2026-04-14 00:17 | 8.59498 | 70.08041 | 37893 ft | 477 kts | 321° |
| 2026-04-14 00:18 | 8.64718 | 70.03895 | 37895 ft | 477 kts | 321° |
| 2026-04-14 00:18 | 8.69939 | 69.99747 | 37895 ft | 476 kts | 321° |
| 2026-04-14 00:19 | 8.75131 | 69.95621 | 37898 ft | 476 kts | 321° |
| 2026-04-14 00:19 | 8.80349 | 69.91472 | 37898 ft | 476 kts | 321° |
| 2026-04-14 00:20 | 8.85536 | 69.87346 | 37897 ft | 477 kts | 321° |
| 2026-04-14 00:20 | 8.90756 | 69.83193 | 37898 ft | 476 kts | 321° |
| 2026-04-14 00:21 | 8.95939 | 69.79067 | 37898 ft | 475 kts | 321° |
| 2026-04-14 00:21 | 9.01147 | 69.74920 | 37898 ft | 475 kts | 321° |
| 2026-04-14 00:22 | 9.06355 | 69.70772 | 37895 ft | 475 kts | 321° |
| 2026-04-14 00:22 | 9.11550 | 69.66632 | 37896 ft | 475 kts | 321° |
| 2026-04-14 00:23 | 9.16718 | 69.62512 | 37898 ft | 475 kts | 321° |
| 2026-04-14 00:23 | 9.21928 | 69.58358 | 37898 ft | 475 kts | 321° |
| 2026-04-14 00:24 | 9.27089 | 69.54240 | 37898 ft | 475 kts | 321° |
| 2026-04-14 00:24 | 9.32292 | 69.50088 | 37899 ft | 475 kts | 321° |
| 2026-04-14 00:25 | 9.37499 | 69.45930 | 37897 ft | 476 kts | 321° |
| 2026-04-14 00:25 | 9.42707 | 69.41770 | 37898 ft | 476 kts | 321° |
| 2026-04-14 00:26 | 9.47884 | 69.37634 | 37898 ft | 476 kts | 321° |
| 2026-04-14 00:26 | 9.53091 | 69.33472 | 37897 ft | 476 kts | 321° |
| 2026-04-14 00:27 | 9.58278 | 69.29324 | 37897 ft | 476 kts | 321° |
| 2026-04-14 00:27 | 9.63478 | 69.25164 | 37897 ft | 475 kts | 321° |
| 2026-04-14 00:28 | 9.68656 | 69.21021 | 37898 ft | 475 kts | 321° |
| 2026-04-14 00:28 | 9.73856 | 69.16857 | 37897 ft | 476 kts | 321° |
| 2026-04-14 00:29 | 9.79065 | 69.12682 | 37900 ft | 476 kts | 321° |
| 2026-04-14 00:29 | 9.84240 | 69.08530 | 37900 ft | 476 kts | 321° |
| 2026-04-14 00:30 | 9.89442 | 69.04355 | 37900 ft | 476 kts | 320° |
| 2026-04-14 00:30 | 9.94644 | 69.00180 | 37899 ft | 475 kts | 320° |
| 2026-04-14 00:31 | 9.99836 | 68.96010 | 37896 ft | 475 kts | 320° |
| 2026-04-14 00:31 | 10.04996 | 68.91865 | 37898 ft | 475 kts | 320° |
| 2026-04-14 00:32 | 10.12786 | 68.85603 | 37900 ft | 475 kts | 320° |
| 2026-04-14 00:33 | 10.17974 | 68.81431 | 37901 ft | 476 kts | 320° |
| 2026-04-14 00:33 | 10.23167 | 68.77253 | 37901 ft | 476 kts | 320° |
| 2026-04-14 00:34 | 10.28330 | 68.73097 | 37900 ft | 475 kts | 320° |
| 2026-04-14 00:34 | 10.33521 | 68.68917 | 37901 ft | 475 kts | 320° |
| 2026-04-14 00:35 | 10.38678 | 68.64763 | 37901 ft | 475 kts | 320° |
| 2026-04-14 00:35 | 10.43857 | 68.60588 | 37899 ft | 475 kts | 320° |
| 2026-04-14 00:36 | 10.49042 | 68.56407 | 37904 ft | 475 kts | 320° |
| 2026-04-14 00:36 | 10.54216 | 68.52233 | 37900 ft | 475 kts | 320° |
| 2026-04-14 00:37 | 10.59366 | 68.48077 | 37905 ft | 475 kts | 320° |
| 2026-04-14 00:37 | 10.64542 | 68.43898 | 37904 ft | 475 kts | 320° |
| 2026-04-14 00:38 | 10.69721 | 68.39715 | 37903 ft | 475 kts | 320° |
| 2026-04-14 00:38 | 10.74897 | 68.35532 | 37902 ft | 474 kts | 320° |
| 2026-04-14 00:39 | 10.80034 | 68.31378 | 37906 ft | 474 kts | 320° |
| 2026-04-14 00:39 | 10.85210 | 68.27192 | 37904 ft | 474 kts | 320° |
| 2026-04-14 00:40 | 10.90382 | 68.23007 | 37905 ft | 474 kts | 320° |
| 2026-04-14 00:40 | 10.95558 | 68.18817 | 37910 ft | 474 kts | 320° |
| 2026-04-14 00:41 | 11.00694 | 68.14657 | 37907 ft | 475 kts | 320° |
| 2026-04-14 00:41 | 11.05868 | 68.10464 | 37909 ft | 475 kts | 320° |
| 2026-04-14 00:42 | 11.11038 | 68.06273 | 37906 ft | 474 kts | 320° |
| 2026-04-14 00:42 | 11.16212 | 68.02076 | 37906 ft | 474 kts | 320° |
| 2026-04-14 00:43 | 11.21354 | 67.97904 | 37907 ft | 474 kts | 320° |
| 2026-04-14 00:43 | 11.26516 | 67.93713 | 37909 ft | 474 kts | 320° |
| 2026-04-14 00:44 | 11.31678 | 67.89520 | 37909 ft | 474 kts | 320° |
| 2026-04-14 00:44 | 11.36813 | 67.85347 | 37908 ft | 474 kts | 320° |
| 2026-04-14 00:45 | 11.41981 | 67.81145 | 37909 ft | 474 kts | 320° |
| 2026-04-14 00:45 | 11.47109 | 67.76975 | 37911 ft | 474 kts | 320° |
| 2026-04-14 00:46 | 11.52268 | 67.72776 | 37914 ft | 473 kts | 320° |
| 2026-04-14 00:46 | 11.57420 | 67.68582 | 37913 ft | 472 kts | 320° |
| 2026-04-14 00:47 | 11.62534 | 67.64416 | 37913 ft | 472 kts | 320° |
| 2026-04-14 00:47 | 11.67677 | 67.60225 | 37915 ft | 472 kts | 320° |
| 2026-04-14 00:48 | 11.72828 | 67.56025 | 37913 ft | 472 kts | 320° |
| 2026-04-14 00:48 | 11.77940 | 67.51855 | 37915 ft | 472 kts | 320° |
| 2026-04-14 00:49 | 11.83079 | 67.47660 | 37919 ft | 472 kts | 320° |
| 2026-04-14 00:49 | 11.88216 | 67.43465 | 37916 ft | 472 kts | 320° |
| 2026-04-14 00:50 | 11.93320 | 67.39296 | 37918 ft | 472 kts | 320° |
| 2026-04-14 00:50 | 11.97592 | 67.35805 | 37920 ft | 472 kts | 320° |
| 2026-04-14 00:51 | 12.02728 | 67.31606 | 37922 ft | 472 kts | 320° |
| 2026-04-14 00:51 | 12.07834 | 67.27430 | 37922 ft | 472 kts | 320° |
| 2026-04-14 00:52 | 12.12967 | 67.23230 | 37919 ft | 472 kts | 320° |
| 2026-04-14 00:52 | 12.18072 | 67.19051 | 37919 ft | 472 kts | 320° |
| 2026-04-14 00:53 | 12.23209 | 67.14843 | 37921 ft | 472 kts | 320° |
| 2026-04-14 00:53 | 12.28335 | 67.10642 | 37923 ft | 472 kts | 320° |
| 2026-04-14 00:54 | 12.33468 | 67.06433 | 37923 ft | 472 kts | 320° |
| 2026-04-14 00:54 | 12.38559 | 67.02257 | 37925 ft | 472 kts | 320° |
| 2026-04-14 00:55 | 12.43693 | 66.98042 | 37923 ft | 472 kts | 320° |
| 2026-04-14 00:55 | 12.48781 | 66.93864 | 37922 ft | 471 kts | 320° |
| 2026-04-14 00:56 | 12.53906 | 66.89653 | 37920 ft | 471 kts | 320° |
| 2026-04-14 00:56 | 12.58999 | 66.85467 | 37926 ft | 471 kts | 320° |
| 2026-04-14 00:57 | 12.64119 | 66.81256 | 37923 ft | 471 kts | 320° |
| 2026-04-14 00:57 | 12.69238 | 66.77043 | 37923 ft | 471 kts | 320° |
| 2026-04-14 00:58 | 12.74351 | 66.72833 | 37927 ft | 471 kts | 320° |
| 2026-04-14 00:58 | 12.79437 | 66.68643 | 37928 ft | 471 kts | 319° |
| 2026-04-14 00:59 | 12.84554 | 66.64426 | 37931 ft | 470 kts | 319° |
| 2026-04-14 00:59 | 12.89657 | 66.60217 | 37931 ft | 470 kts | 319° |
| 2026-04-14 01:00 | 12.94730 | 66.56031 | 37930 ft | 470 kts | 319° |
| 2026-04-14 01:00 | 12.99829 | 66.51821 | 37934 ft | 470 kts | 319° |
| 2026-04-14 01:01 | 13.04931 | 66.47607 | 37933 ft | 469 kts | 319° |
| 2026-04-14 01:01 | 13.09999 | 66.43419 | 37932 ft | 469 kts | 319° |
| 2026-04-14 01:02 | 13.15087 | 66.39211 | 37936 ft | 469 kts | 319° |
| 2026-04-14 01:02 | 13.20144 | 66.35026 | 37936 ft | 469 kts | 319° |
| 2026-04-14 01:03 | 13.25227 | 66.30819 | 37933 ft | 469 kts | 319° |
| 2026-04-14 01:03 | 13.30325 | 66.26596 | 37937 ft | 469 kts | 319° |
| 2026-04-14 01:04 | 13.35409 | 66.22383 | 37939 ft | 469 kts | 319° |
| 2026-04-14 01:04 | 13.40463 | 66.18191 | 37938 ft | 468 kts | 319° |
| 2026-04-14 01:05 | 13.45545 | 66.13975 | 37933 ft | 468 kts | 319° |
| 2026-04-14 01:05 | 13.50609 | 66.09771 | 37936 ft | 468 kts | 319° |
| 2026-04-14 01:06 | 13.55683 | 66.05557 | 37941 ft | 468 kts | 319° |
| 2026-04-14 01:06 | 13.60719 | 66.01371 | 37936 ft | 468 kts | 319° |
| 2026-04-14 01:07 | 13.65794 | 65.97151 | 37941 ft | 468 kts | 319° |
| 2026-04-14 01:07 | 13.70862 | 65.92935 | 37951 ft | 468 kts | 319° |
| 2026-04-14 01:08 | 13.75921 | 65.88723 | 37939 ft | 467 kts | 318° |
| 2026-04-14 01:08 | 13.80981 | 65.84508 | 37941 ft | 467 kts | 318° |
| 2026-04-14 01:09 | 13.86011 | 65.80315 | 37936 ft | 467 kts | 318° |
| 2026-04-14 01:09 | 13.91066 | 65.76099 | 37935 ft | 467 kts | 318° |
| 2026-04-14 01:10 | 13.96131 | 65.71873 | 37937 ft | 467 kts | 318° |
| 2026-04-14 01:10 | 14.01160 | 65.67674 | 37940 ft | 467 kts | 318° |
| 2026-04-14 01:11 | 14.06214 | 65.63452 | 37943 ft | 467 kts | 318° |
| 2026-04-14 01:11 | 14.11269 | 65.59227 | 37942 ft | 467 kts | 318° |
| 2026-04-14 01:12 | 14.16327 | 65.54997 | 37939 ft | 467 kts | 318° |
| 2026-04-14 01:12 | 14.21352 | 65.50791 | 37940 ft | 467 kts | 318° |
| 2026-04-14 01:13 | 14.26402 | 65.46562 | 37936 ft | 467 kts | 318° |
| 2026-04-14 01:13 | 14.31438 | 65.42343 | 37947 ft | 467 kts | 318° |
| 2026-04-14 01:14 | 14.36493 | 65.38105 | 37946 ft | 467 kts | 318° |
| 2026-04-14 01:14 | 14.41542 | 65.33869 | 37935 ft | 467 kts | 318° |
| 2026-04-14 01:15 | 14.46595 | 65.29628 | 37950 ft | 467 kts | 318° |
| 2026-04-14 01:15 | 14.51615 | 65.25411 | 37950 ft | 468 kts | 318° |
| 2026-04-14 01:16 | 14.56670 | 65.21163 | 37944 ft | 468 kts | 318° |
| 2026-04-14 01:16 | 14.61726 | 65.16911 | 37952 ft | 468 kts | 318° |
| 2026-04-14 01:18 | 14.81901 | 64.99907 | 37953 ft | 468 kts | 318° |
| 2026-04-14 01:19 | 14.86921 | 64.95670 | 37953 ft | 468 kts | 318° |
| 2026-04-14 01:19 | 14.91977 | 64.91400 | 37957 ft | 468 kts | 318° |
| 2026-04-14 01:20 | 14.97001 | 64.87155 | 37957 ft | 468 kts | 318° |
| 2026-04-14 01:20 | 15.02053 | 64.82882 | 37960 ft | 468 kts | 318° |
| 2026-04-14 01:21 | 15.07107 | 64.78606 | 37954 ft | 468 kts | 318° |
| 2026-04-14 01:21 | 15.12132 | 64.74352 | 37957 ft | 468 kts | 318° |
| 2026-04-14 01:22 | 15.17182 | 64.70073 | 37951 ft | 468 kts | 318° |
| 2026-04-14 01:22 | 15.22204 | 64.65816 | 37952 ft | 468 kts | 318° |
| 2026-04-14 01:23 | 15.27259 | 64.61528 | 37960 ft | 468 kts | 318° |
| 2026-04-14 01:23 | 15.32280 | 64.57265 | 37961 ft | 468 kts | 318° |
| 2026-04-14 01:24 | 15.37325 | 64.52981 | 37960 ft | 468 kts | 318° |
| 2026-04-14 01:24 | 15.42369 | 64.48693 | 37959 ft | 468 kts | 318° |
| 2026-04-14 01:25 | 15.47384 | 64.44428 | 37974 ft | 468 kts | 318° |
| 2026-04-14 01:25 | 15.52426 | 64.40137 | 37951 ft | 467 kts | 318° |
| 2026-04-14 01:26 | 15.57427 | 64.35878 | 37960 ft | 467 kts | 318° |
| 2026-04-14 01:26 | 15.62457 | 64.31592 | 37960 ft | 467 kts | 318° |
| 2026-04-14 01:27 | 15.67487 | 64.27303 | 37947 ft | 467 kts | 318° |
| 2026-04-14 01:27 | 15.72522 | 64.23006 | 37959 ft | 467 kts | 318° |
| 2026-04-14 01:28 | 15.77511 | 64.18747 | 37976 ft | 467 kts | 317° |
| 2026-04-14 01:28 | 15.82533 | 64.14456 | 37959 ft | 466 kts | 317° |
| 2026-04-14 01:29 | 15.87518 | 64.10194 | 37957 ft | 466 kts | 317° |
| 2026-04-14 01:29 | 15.92536 | 64.05900 | 37965 ft | 466 kts | 317° |
| 2026-04-14 01:30 | 15.97550 | 64.01607 | 37957 ft | 466 kts | 317° |
| 2026-04-14 01:30 | 16.02534 | 63.97338 | 37977 ft | 466 kts | 317° |
| 2026-04-14 01:31 | 16.06707 | 63.93761 | 37964 ft | 466 kts | 317° |
| 2026-04-14 01:31 | 16.11725 | 63.89457 | 37967 ft | 466 kts | 317° |
| 2026-04-14 01:32 | 16.16707 | 63.85181 | 37969 ft | 466 kts | 317° |
| 2026-04-14 01:32 | 16.21722 | 63.80874 | 37965 ft | 466 kts | 317° |
| 2026-04-14 01:33 | 16.26691 | 63.76602 | 37965 ft | 466 kts | 317° |
| 2026-04-14 01:33 | 16.31698 | 63.72296 | 37966 ft | 466 kts | 317° |
| 2026-04-14 01:34 | 16.36711 | 63.67981 | 37968 ft | 466 kts | 317° |
| 2026-04-14 01:34 | 16.41680 | 63.63702 | 37966 ft | 466 kts | 317° |
| 2026-04-14 01:35 | 16.46684 | 63.59389 | 37966 ft | 466 kts | 317° |
| 2026-04-14 01:35 | 16.51683 | 63.55077 | 37969 ft | 466 kts | 317° |
| 2026-04-14 01:36 | 16.56686 | 63.50760 | 37970 ft | 466 kts | 317° |
| 2026-04-14 01:36 | 16.61653 | 63.46469 | 37978 ft | 466 kts | 317° |
| 2026-04-14 01:37 | 16.66652 | 63.42149 | 37970 ft | 465 kts | 317° |
| 2026-04-14 01:37 | 16.71646 | 63.37831 | 37972 ft | 465 kts | 317° |
| 2026-04-14 01:38 | 16.79093 | 63.31384 | 37971 ft | 465 kts | 317° |
| 2026-04-14 01:38 | 16.84078 | 63.27065 | 37971 ft | 465 kts | 317° |
| 2026-04-14 01:39 | 16.89069 | 63.22738 | 37971 ft | 465 kts | 317° |
| 2026-04-14 01:39 | 16.94021 | 63.18442 | 37971 ft | 465 kts | 317° |
| 2026-04-14 01:40 | 16.98740 | 63.13850 | 37973 ft | 461 kts | 307° |
| 2026-04-14 01:40 | 17.01954 | 63.08174 | 37974 ft | 454 kts | 288° |
| 2026-04-14 01:41 | 17.03755 | 63.01850 | 37974 ft | 454 kts | 283° |
| 2026-04-14 01:41 | 17.05261 | 62.95425 | 37974 ft | 454 kts | 282° |
| 2026-04-14 01:42 | 17.06740 | 62.88993 | 37974 ft | 454 kts | 282° |
| 2026-04-14 01:42 | 17.08237 | 62.82623 | 37974 ft | 454 kts | 282° |
| 2026-04-14 01:43 | 17.09769 | 62.76187 | 37974 ft | 455 kts | 282° |
| 2026-04-14 01:43 | 17.11292 | 62.69804 | 37974 ft | 455 kts | 282° |
| 2026-04-14 01:44 | 17.12823 | 62.63370 | 37974 ft | 454 kts | 282° |
| 2026-04-14 01:44 | 17.14340 | 62.56986 | 37974 ft | 454 kts | 282° |
| 2026-04-14 01:45 | 17.15862 | 62.50563 | 37979 ft | 454 kts | 282° |
| 2026-04-14 01:45 | 17.17384 | 62.44135 | 37980 ft | 454 kts | 282° |
| 2026-04-14 01:46 | 17.18893 | 62.37748 | 37979 ft | 454 kts | 282° |
| 2026-04-14 01:46 | 17.20411 | 62.31315 | 37979 ft | 455 kts | 282° |
| 2026-04-14 01:47 | 17.21918 | 62.24922 | 37979 ft | 454 kts | 282° |
| 2026-04-14 01:47 | 17.23432 | 62.18485 | 37980 ft | 455 kts | 282° |
| 2026-04-14 01:48 | 17.24948 | 62.12035 | 37982 ft | 455 kts | 282° |
| 2026-04-14 01:48 | 17.26450 | 62.05633 | 37982 ft | 455 kts | 282° |
| 2026-04-14 01:49 | 17.27961 | 61.99181 | 37982 ft | 455 kts | 282° |
| 2026-04-14 01:49 | 17.29461 | 61.92768 | 37983 ft | 455 kts | 282° |
| 2026-04-14 01:50 | 17.30968 | 61.86314 | 37993 ft | 456 kts | 281° |
| 2026-04-14 01:50 | 17.32472 | 61.79862 | 37982 ft | 455 kts | 281° |
| 2026-04-14 01:51 | 17.33964 | 61.73453 | 37982 ft | 455 kts | 281° |
| 2026-04-14 01:51 | 17.35465 | 61.66997 | 37985 ft | 455 kts | 281° |
| 2026-04-14 01:52 | 17.36961 | 61.60552 | 37985 ft | 455 kts | 281° |
| 2026-04-14 01:52 | 17.38444 | 61.54151 | 37985 ft | 455 kts | 281° |
| 2026-04-14 01:53 | 17.39937 | 61.47698 | 37988 ft | 455 kts | 281° |
| 2026-04-14 01:53 | 17.41418 | 61.41287 | 37988 ft | 455 kts | 281° |
| 2026-04-14 01:54 | 17.42905 | 61.34839 | 37988 ft | 455 kts | 281° |
| 2026-04-14 01:54 | 17.44393 | 61.28377 | 37988 ft | 455 kts | 281° |
| 2026-04-14 01:55 | 17.45869 | 61.21956 | 37985 ft | 455 kts | 281° |
| 2026-04-14 01:55 | 17.47352 | 61.15497 | 37985 ft | 455 kts | 281° |
| 2026-04-14 01:56 | 17.48832 | 61.09043 | 37985 ft | 455 kts | 281° |
| 2026-04-14 01:56 | 17.50309 | 61.02591 | 37990 ft | 455 kts | 281° |
| 2026-04-14 01:57 | 17.51774 | 60.96176 | 37992 ft | 455 kts | 281° |
| 2026-04-14 01:57 | 17.53249 | 60.89712 | 37989 ft | 455 kts | 281° |
| 2026-04-14 01:58 | 17.54712 | 60.83288 | 37992 ft | 455 kts | 281° |
| 2026-04-14 01:58 | 17.56183 | 60.76818 | 37992 ft | 455 kts | 281° |
| 2026-04-14 01:59 | 17.57641 | 60.70396 | 37990 ft | 455 kts | 281° |
| 2026-04-14 01:59 | 17.59112 | 60.63906 | 37992 ft | 456 kts | 281° |
| 2026-04-14 02:00 | 17.60579 | 60.57425 | 37992 ft | 456 kts | 281° |
| 2026-04-14 02:00 | 17.62035 | 60.50983 | 37994 ft | 456 kts | 281° |
| 2026-04-14 02:01 | 17.63489 | 60.44538 | 37991 ft | 456 kts | 281° |
| 2026-04-14 02:01 | 17.64951 | 60.38045 | 37995 ft | 457 kts | 281° |
| 2026-04-14 02:02 | 17.66403 | 60.31589 | 37993 ft | 457 kts | 281° |
| 2026-04-14 02:02 | 17.67860 | 60.25102 | 37993 ft | 456 kts | 280° |
| 2026-04-14 02:03 | 17.69312 | 60.18625 | 37994 ft | 455 kts | 280° |
| 2026-04-14 02:03 | 17.70751 | 60.12196 | 37991 ft | 455 kts | 280° |
| 2026-04-14 02:04 | 17.72199 | 60.05715 | 37993 ft | 455 kts | 280° |
| 2026-04-14 02:04 | 17.73768 | 59.99310 | 37993 ft | 457 kts | 284° |
| 2026-04-14 02:05 | 17.75740 | 59.92947 | 37993 ft | 457 kts | 285° |
| 2026-04-14 02:05 | 17.77772 | 59.86653 | 37992 ft | 457 kts | 286° |
| 2026-04-14 02:06 | 17.79825 | 59.80322 | 37993 ft | 458 kts | 286° |
| 2026-04-14 02:06 | 17.81871 | 59.73983 | 37992 ft | 458 kts | 285° |
| 2026-04-14 02:07 | 17.83898 | 59.67677 | 37995 ft | 458 kts | 285° |
| 2026-04-14 02:07 | 17.85933 | 59.61333 | 38003 ft | 457 kts | 285° |
| 2026-04-14 02:08 | 17.87950 | 59.55039 | 37993 ft | 455 kts | 285° |
| 2026-04-14 02:08 | 17.89969 | 59.48732 | 37997 ft | 455 kts | 285° |
| 2026-04-14 02:09 | 17.91974 | 59.42457 | 37996 ft | 455 kts | 285° |
| 2026-04-14 02:09 | 17.93989 | 59.36146 | 37996 ft | 455 kts | 285° |
| 2026-04-14 02:10 | 17.96000 | 59.29839 | 37996 ft | 455 kts | 285° |
| 2026-04-14 02:10 | 17.97998 | 59.23566 | 37996 ft | 455 kts | 285° |
| 2026-04-14 02:11 | 18.00010 | 59.17244 | 37996 ft | 455 kts | 285° |
| 2026-04-14 02:11 | 18.02007 | 59.10958 | 37996 ft | 455 kts | 285° |
| 2026-04-14 02:12 | 18.04016 | 59.04627 | 37996 ft | 455 kts | 285° |
| 2026-04-14 02:12 | 18.05681 | 58.99373 | 37997 ft | 455 kts | 285° |
| 2026-04-14 02:13 | 18.07682 | 58.93056 | 37997 ft | 453 kts | 285° |
| 2026-04-14 02:13 | 18.09663 | 58.86787 | 37996 ft | 453 kts | 285° |
| 2026-04-14 02:14 | 18.11651 | 58.80493 | 37998 ft | 453 kts | 285° |
| 2026-04-14 02:14 | 18.13640 | 58.74186 | 37998 ft | 453 kts | 285° |
| 2026-04-14 02:15 | 18.15614 | 58.67920 | 37998 ft | 453 kts | 285° |
| 2026-04-14 02:15 | 18.17599 | 58.61609 | 37998 ft | 453 kts | 285° |
| 2026-04-14 02:16 | 18.19579 | 58.55310 | 37998 ft | 453 kts | 285° |
| 2026-04-14 02:16 | 18.21545 | 58.49044 | 37998 ft | 453 kts | 285° |
| 2026-04-14 02:17 | 18.23522 | 58.42735 | 38013 ft | 453 kts | 284° |
| 2026-04-14 02:17 | 18.25495 | 58.36435 | 37998 ft | 452 kts | 284° |
| 2026-04-14 02:18 | 18.27451 | 58.30179 | 37998 ft | 452 kts | 284° |
| 2026-04-14 02:18 | 18.29416 | 58.23883 | 37998 ft | 452 kts | 284° |
| 2026-04-14 02:19 | 18.31365 | 58.17632 | 37999 ft | 452 kts | 284° |
| 2026-04-14 02:19 | 18.33327 | 58.11335 | 37998 ft | 451 kts | 284° |
| 2026-04-14 02:20 | 18.35286 | 58.05036 | 37998 ft | 451 kts | 284° |
| 2026-04-14 02:20 | 18.37229 | 57.98780 | 37998 ft | 451 kts | 284° |
| 2026-04-14 02:21 | 18.39170 | 57.92488 | 38002 ft | 451 kts | 284° |
| 2026-04-14 02:21 | 18.41091 | 57.86226 | 38001 ft | 451 kts | 284° |
| 2026-04-14 02:22 | 18.43016 | 57.79945 | 38001 ft | 449 kts | 284° |
| 2026-04-14 02:22 | 18.44936 | 57.73673 | 38001 ft | 448 kts | 284° |
| 2026-04-14 02:23 | 18.46838 | 57.67453 | 38001 ft | 448 kts | 284° |
| 2026-04-14 02:23 | 18.48749 | 57.61196 | 38001 ft | 448 kts | 284° |
| 2026-04-14 02:24 | 18.50657 | 57.54940 | 37996 ft | 448 kts | 284° |
| 2026-04-14 02:24 | 18.52555 | 57.48712 | 37993 ft | 448 kts | 284° |
| 2026-04-14 02:25 | 18.54465 | 57.42434 | 37996 ft | 448 kts | 284° |
| 2026-04-14 02:25 | 18.56358 | 57.36205 | 37992 ft | 448 kts | 284° |
| 2026-04-14 02:26 | 18.58265 | 57.29919 | 37993 ft | 449 kts | 284° |
| 2026-04-14 02:26 | 18.60167 | 57.23644 | 37994 ft | 449 kts | 284° |
| 2026-04-14 02:27 | 18.62054 | 57.17414 | 37996 ft | 447 kts | 284° |
| 2026-04-14 02:27 | 18.63940 | 57.11174 | 37993 ft | 446 kts | 284° |
| 2026-04-14 02:28 | 18.65826 | 57.04926 | 37998 ft | 446 kts | 283° |
| 2026-04-14 02:28 | 18.67697 | 56.98720 | 37996 ft | 446 kts | 283° |
| 2026-04-14 02:29 | 18.69577 | 56.92475 | 37998 ft | 446 kts | 283° |
| 2026-04-14 02:29 | 18.71457 | 56.86222 | 37999 ft | 446 kts | 283° |
| 2026-04-14 02:30 | 18.73321 | 56.80017 | 37999 ft | 446 kts | 283° |
| 2026-04-14 02:30 | 18.75200 | 56.73750 | 38001 ft | 446 kts | 283° |
| 2026-04-14 02:31 | 18.77064 | 56.67525 | 38004 ft | 446 kts | 283° |
| 2026-04-14 02:31 | 18.78939 | 56.61258 | 38011 ft | 446 kts | 283° |
| 2026-04-14 02:32 | 18.80808 | 56.55000 | 38008 ft | 447 kts | 283° |
| 2026-04-14 02:32 | 18.82667 | 56.48769 | 38008 ft | 447 kts | 283° |
| 2026-04-14 02:33 | 18.84535 | 56.42500 | 38009 ft | 447 kts | 283° |
| 2026-04-14 02:34 | 18.87333 | 56.33093 | 38011 ft | 447 kts | 283° |
| 2026-04-14 02:34 | 18.89181 | 56.26867 | 38017 ft | 446 kts | 283° |
| 2026-04-14 02:35 | 18.91039 | 56.20601 | 38018 ft | 446 kts | 283° |
| 2026-04-14 02:35 | 18.92892 | 56.14344 | 38012 ft | 446 kts | 283° |
| 2026-04-14 02:36 | 18.94733 | 56.08118 | 38015 ft | 445 kts | 283° |
| 2026-04-14 02:36 | 18.96577 | 56.01875 | 38014 ft | 444 kts | 283° |
| 2026-04-14 02:37 | 18.98418 | 55.95631 | 38018 ft | 443 kts | 283° |
| 2026-04-14 02:37 | 19.00244 | 55.89430 | 38020 ft | 443 kts | 283° |
| 2026-04-14 02:38 | 19.02067 | 55.83231 | 38018 ft | 443 kts | 283° |
| 2026-04-14 02:38 | 19.03900 | 55.76991 | 38021 ft | 444 kts | 283° |
| 2026-04-14 02:39 | 19.05730 | 55.70752 | 38019 ft | 444 kts | 283° |
| 2026-04-14 02:39 | 19.07544 | 55.64558 | 38023 ft | 443 kts | 283° |
| 2026-04-14 02:40 | 19.09372 | 55.58309 | 38019 ft | 443 kts | 283° |
| 2026-04-14 02:40 | 19.11184 | 55.52105 | 38027 ft | 443 kts | 283° |
| 2026-04-14 02:41 | 19.13003 | 55.45874 | 38020 ft | 442 kts | 283° |
| 2026-04-14 02:41 | 19.14816 | 55.39650 | 38021 ft | 442 kts | 282° |
| 2026-04-14 02:42 | 19.16614 | 55.33468 | 38020 ft | 442 kts | 282° |
| 2026-04-14 02:42 | 19.18424 | 55.27235 | 38020 ft | 442 kts | 282° |
| 2026-04-14 02:43 | 19.20221 | 55.21042 | 38023 ft | 442 kts | 283° |
| 2026-04-14 02:43 | 19.22027 | 55.14809 | 38021 ft | 442 kts | 283° |
| 2026-04-14 02:44 | 19.23816 | 55.08626 | 38019 ft | 442 kts | 282° |
| 2026-04-14 02:44 | 19.25615 | 55.02398 | 38019 ft | 442 kts | 282° |
| 2026-04-14 02:45 | 19.27413 | 54.96169 | 38023 ft | 440 kts | 282° |
| 2026-04-14 02:45 | 19.29186 | 54.90017 | 38011 ft | 438 kts | 282° |
| 2026-04-14 02:46 | 19.30964 | 54.83836 | 38010 ft | 438 kts | 282° |
| 2026-04-14 02:46 | 19.32741 | 54.77646 | 38013 ft | 438 kts | 282° |
| 2026-04-14 02:47 | 19.34506 | 54.71494 | 37997 ft | 438 kts | 282° |
| 2026-04-14 02:47 | 19.36275 | 54.65323 | 38010 ft | 437 kts | 282° |
| 2026-04-14 02:48 | 19.38038 | 54.59160 | 38009 ft | 437 kts | 282° |
| 2026-04-14 02:48 | 19.39789 | 54.53030 | 38011 ft | 437 kts | 282° |
| 2026-04-14 02:49 | 19.41550 | 54.46858 | 38016 ft | 437 kts | 282° |
| 2026-04-14 02:49 | 19.43307 | 54.40695 | 38013 ft | 436 kts | 282° |
| 2026-04-14 02:50 | 19.45049 | 54.34575 | 38011 ft | 435 kts | 282° |
| 2026-04-14 02:50 | 19.46797 | 54.28420 | 38014 ft | 435 kts | 282° |
| 2026-04-14 02:51 | 19.48541 | 54.22270 | 38016 ft | 435 kts | 282° |
| 2026-04-14 02:51 | 19.50274 | 54.16155 | 38017 ft | 434 kts | 282° |
| 2026-04-14 02:52 | 19.52016 | 54.10001 | 38014 ft | 434 kts | 282° |
| 2026-04-14 02:52 | 19.53740 | 54.03896 | 38016 ft | 434 kts | 282° |
| 2026-04-14 02:53 | 19.55473 | 53.97754 | 38021 ft | 434 kts | 282° |
| 2026-04-14 02:53 | 19.57191 | 53.91656 | 38016 ft | 434 kts | 282° |
| 2026-04-14 02:54 | 19.58921 | 53.85511 | 38018 ft | 432 kts | 282° |
| 2026-04-14 02:54 | 19.60765 | 53.79474 | 38014 ft | 435 kts | 288° |
| 2026-04-14 02:55 | 19.63314 | 53.73611 | 38020 ft | 437 kts | 290° |
| 2026-04-14 02:55 | 19.65990 | 53.67842 | 38018 ft | 437 kts | 291° |
| 2026-04-14 02:56 | 19.68250 | 53.63023 | 38018 ft | 437 kts | 291° |
| 2026-04-14 02:56 | 19.70957 | 53.57226 | 38017 ft | 437 kts | 291° |
| 2026-04-14 02:57 | 19.73635 | 53.51459 | 38021 ft | 437 kts | 290° |
| 2026-04-14 02:57 | 19.76324 | 53.45652 | 38023 ft | 437 kts | 290° |
| 2026-04-14 02:58 | 19.78989 | 53.39891 | 38018 ft | 436 kts | 290° |
| 2026-04-14 02:58 | 19.81668 | 53.34094 | 38017 ft | 436 kts | 290° |
| 2026-04-14 02:59 | 19.84326 | 53.28336 | 38016 ft | 436 kts | 290° |
| 2026-04-14 02:59 | 19.87004 | 53.22530 | 38023 ft | 436 kts | 290° |
| 2026-04-14 03:00 | 19.89676 | 53.16733 | 38028 ft | 436 kts | 290° |
| 2026-04-14 03:00 | 19.92329 | 53.10971 | 38025 ft | 436 kts | 290° |
| 2026-04-14 03:01 | 19.94994 | 53.05175 | 38025 ft | 434 kts | 290° |
| 2026-04-14 03:01 | 19.97635 | 52.99427 | 38029 ft | 434 kts | 290° |
| 2026-04-14 03:02 | 20.00289 | 52.93640 | 38022 ft | 434 kts | 290° |
| 2026-04-14 03:02 | 20.02928 | 52.87883 | 38028 ft | 434 kts | 290° |
| 2026-04-14 03:03 | 20.05574 | 52.82104 | 38018 ft | 434 kts | 290° |
| 2026-04-14 03:03 | 20.08228 | 52.76303 | 38038 ft | 434 kts | 290° |
| 2026-04-14 03:04 | 20.10861 | 52.70543 | 38028 ft | 434 kts | 289° |
| 2026-04-14 03:04 | 20.13482 | 52.64803 | 38022 ft | 432 kts | 289° |
| 2026-04-14 03:05 | 20.16117 | 52.59025 | 38025 ft | 432 kts | 289° |
| 2026-04-14 03:05 | 20.18733 | 52.53279 | 38027 ft | 432 kts | 289° |
| 2026-04-14 03:06 | 20.21359 | 52.47507 | 38029 ft | 432 kts | 289° |
| 2026-04-14 03:06 | 20.23966 | 52.41773 | 38028 ft | 432 kts | 289° |
| 2026-04-14 03:07 | 20.26584 | 52.36008 | 38029 ft | 432 kts | 289° |
| 2026-04-14 03:07 | 20.29188 | 52.30268 | 38036 ft | 431 kts | 289° |
| 2026-04-14 03:08 | 20.31800 | 52.24505 | 38031 ft | 430 kts | 289° |
| 2026-04-14 03:08 | 20.34382 | 52.18799 | 38032 ft | 430 kts | 289° |
| 2026-04-14 03:09 | 20.36983 | 52.13047 | 38027 ft | 430 kts | 289° |
| 2026-04-14 03:09 | 20.39582 | 52.07293 | 38030 ft | 430 kts | 289° |
| 2026-04-14 03:10 | 20.42160 | 52.01579 | 38036 ft | 429 kts | 289° |
| 2026-04-14 03:10 | 20.44755 | 51.95824 | 38040 ft | 429 kts | 289° |
| 2026-04-14 03:11 | 20.47340 | 51.90082 | 38038 ft | 429 kts | 289° |
| 2026-04-14 03:11 | 20.49911 | 51.84366 | 38034 ft | 429 kts | 289° |
| 2026-04-14 03:12 | 20.52492 | 51.78621 | 38038 ft | 429 kts | 289° |
| 2026-04-14 03:12 | 20.55052 | 51.72919 | 38042 ft | 428 kts | 289° |
| 2026-04-14 03:13 | 20.57630 | 51.67168 | 38041 ft | 428 kts | 289° |
| 2026-04-14 03:13 | 20.60201 | 51.61427 | 38043 ft | 428 kts | 289° |
| 2026-04-14 03:14 | 20.62759 | 51.55709 | 38045 ft | 428 kts | 289° |
| 2026-04-14 03:14 | 20.65326 | 51.49968 | 38045 ft | 427 kts | 289° |
| 2026-04-14 03:15 | 20.67878 | 51.44250 | 38048 ft | 427 kts | 289° |
| 2026-04-14 03:15 | 20.70417 | 51.38556 | 38050 ft | 427 kts | 289° |
| 2026-04-14 03:16 | 20.72972 | 51.32818 | 38046 ft | 427 kts | 289° |
| 2026-04-14 03:16 | 20.75527 | 51.27077 | 38056 ft | 427 kts | 289° |
| 2026-04-14 03:17 | 20.78066 | 51.21366 | 38080 ft | 427 kts | 288° |
| 2026-04-14 03:17 | 20.81867 | 51.12804 | 38061 ft | 426 kts | 288° |
| 2026-04-14 03:18 | 20.84413 | 51.07061 | 38061 ft | 426 kts | 288° |
| 2026-04-14 03:18 | 20.86945 | 51.01342 | 38062 ft | 426 kts | 288° |
| 2026-04-14 03:19 | 20.89484 | 50.95602 | 38067 ft | 426 kts | 288° |
| 2026-04-14 03:19 | 20.92008 | 50.89889 | 38067 ft | 426 kts | 288° |
| 2026-04-14 03:20 | 20.94546 | 50.84138 | 38082 ft | 426 kts | 288° |
| 2026-04-14 03:20 | 20.97079 | 50.78394 | 38072 ft | 426 kts | 288° |
| 2026-04-14 03:21 | 20.99600 | 50.72669 | 38076 ft | 427 kts | 288° |
| 2026-04-14 03:21 | 21.02121 | 50.66938 | 38078 ft | 427 kts | 288° |
| 2026-04-14 03:22 | 21.04652 | 50.61179 | 38078 ft | 426 kts | 288° |
| 2026-04-14 03:22 | 21.07181 | 50.55418 | 38083 ft | 426 kts | 288° |
| 2026-04-14 03:23 | 21.09695 | 50.49685 | 38102 ft | 426 kts | 288° |
| 2026-04-14 03:23 | 21.12217 | 50.43928 | 38080 ft | 427 kts | 287° |
| 2026-04-14 03:24 | 21.14727 | 50.38188 | 38088 ft | 427 kts | 287° |
| 2026-04-14 03:24 | 21.17255 | 50.32404 | 38089 ft | 427 kts | 287° |
| 2026-04-14 03:25 | 21.19763 | 50.26660 | 38094 ft | 427 kts | 287° |
| 2026-04-14 03:25 | 21.22283 | 50.20881 | 38094 ft | 427 kts | 287° |
| 2026-04-14 03:26 | 21.24803 | 50.15093 | 38095 ft | 428 kts | 287° |
| 2026-04-14 03:26 | 21.27317 | 50.09317 | 38098 ft | 426 kts | 287° |
| 2026-04-14 03:27 | 21.29807 | 50.03591 | 38103 ft | 425 kts | 287° |
| 2026-04-14 03:27 | 21.32309 | 49.97823 | 38106 ft | 425 kts | 287° |
| 2026-04-14 03:28 | 21.34791 | 49.92097 | 38105 ft | 424 kts | 287° |
| 2026-04-14 03:28 | 21.37283 | 49.86344 | 38108 ft | 424 kts | 287° |
| 2026-04-14 03:29 | 21.39753 | 49.80635 | 38111 ft | 424 kts | 287° |
| 2026-04-14 03:29 | 21.42223 | 49.74921 | 38116 ft | 422 kts | 287° |
| 2026-04-14 03:30 | 21.44686 | 49.69218 | 38111 ft | 419 kts | 287° |
| 2026-04-14 03:30 | 21.47128 | 49.63553 | 38110 ft | 419 kts | 287° |
| 2026-04-14 03:31 | 21.49580 | 49.57856 | 38115 ft | 419 kts | 287° |
| 2026-04-14 03:31 | 21.52034 | 49.52150 | 38113 ft | 419 kts | 287° |
| 2026-04-14 03:32 | 21.54463 | 49.46498 | 38119 ft | 419 kts | 287° |
| 2026-04-14 03:32 | 21.56910 | 49.40797 | 38135 ft | 419 kts | 287° |
| 2026-04-14 03:33 | 21.59336 | 49.35141 | 38127 ft | 419 kts | 287° |
| 2026-04-14 03:33 | 21.61775 | 49.29444 | 38123 ft | 419 kts | 287° |
| 2026-04-14 03:34 | 21.65416 | 49.20931 | 38136 ft | 419 kts | 287° |
| 2026-04-14 03:35 | 21.67853 | 49.15223 | 38142 ft | 419 kts | 287° |
| 2026-04-14 03:35 | 21.70276 | 49.09543 | 38140 ft | 419 kts | 287° |
| 2026-04-14 03:36 | 21.72709 | 49.03834 | 38140 ft | 418 kts | 287° |
| 2026-04-14 03:36 | 21.75119 | 48.98171 | 38143 ft | 418 kts | 287° |
| 2026-04-14 03:37 | 21.77547 | 48.92460 | 38143 ft | 418 kts | 287° |
| 2026-04-14 03:37 | 21.79971 | 48.86751 | 38146 ft | 418 kts | 287° |
| 2026-04-14 03:38 | 21.82373 | 48.81087 | 38147 ft | 418 kts | 287° |
| 2026-04-14 03:38 | 21.84792 | 48.75378 | 38145 ft | 418 kts | 287° |
| 2026-04-14 03:39 | 21.87208 | 48.69669 | 38153 ft | 419 kts | 287° |
| 2026-04-14 03:39 | 21.89610 | 48.63988 | 38152 ft | 419 kts | 287° |
| 2026-04-14 03:40 | 21.92029 | 48.58258 | 38148 ft | 420 kts | 287° |
| 2026-04-14 03:40 | 21.94433 | 48.52556 | 38154 ft | 420 kts | 287° |
| 2026-04-14 03:41 | 21.96455 | 48.47756 | 38152 ft | 420 kts | 287° |
| 2026-04-14 03:41 | 21.98861 | 48.42040 | 38151 ft | 420 kts | 287° |
| 2026-04-14 03:42 | 22.01273 | 48.36301 | 38147 ft | 420 kts | 287° |
| 2026-04-14 03:42 | 22.03669 | 48.30594 | 38157 ft | 420 kts | 287° |
| 2026-04-14 03:43 | 22.06081 | 48.24843 | 38149 ft | 420 kts | 287° |
| 2026-04-14 03:43 | 22.08488 | 48.19095 | 38150 ft | 420 kts | 287° |
| 2026-04-14 03:44 | 22.10882 | 48.13370 | 38148 ft | 421 kts | 287° |
| 2026-04-14 03:44 | 22.13292 | 48.07603 | 38150 ft | 421 kts | 287° |
| 2026-04-14 03:45 | 22.15702 | 48.01830 | 38154 ft | 422 kts | 287° |
| 2026-04-14 03:45 | 22.18103 | 47.96068 | 38152 ft | 424 kts | 287° |
| 2026-04-14 03:46 | 22.20528 | 47.90243 | 38154 ft | 425 kts | 287° |
| 2026-04-14 03:46 | 22.22939 | 47.84449 | 38152 ft | 425 kts | 287° |
| 2026-04-14 03:47 | 22.25360 | 47.78621 | 38147 ft | 425 kts | 287° |
| 2026-04-14 03:47 | 22.27790 | 47.72763 | 38158 ft | 427 kts | 287° |
| 2026-04-14 03:48 | 22.30230 | 47.66871 | 38155 ft | 430 kts | 287° |
| 2026-04-14 03:48 | 22.32664 | 47.60991 | 38149 ft | 430 kts | 287° |
| 2026-04-14 03:49 | 22.35115 | 47.55066 | 38154 ft | 431 kts | 287° |
| 2026-04-14 03:49 | 22.37552 | 47.49162 | 38151 ft | 432 kts | 287° |
| 2026-04-14 03:50 | 22.40006 | 47.43213 | 38144 ft | 432 kts | 287° |
| 2026-04-14 03:50 | 22.42443 | 47.37295 | 38154 ft | 433 kts | 287° |
| 2026-04-14 03:51 | 22.44897 | 47.31330 | 38149 ft | 434 kts | 287° |
| 2026-04-14 03:51 | 22.47353 | 47.25353 | 38149 ft | 434 kts | 287° |
| 2026-04-14 03:52 | 22.49803 | 47.19381 | 38146 ft | 434 kts | 287° |
| 2026-04-14 03:52 | 22.52238 | 47.13440 | 38148 ft | 433 kts | 288° |
| 2026-04-14 03:53 | 22.54683 | 47.07467 | 38159 ft | 433 kts | 287° |
| 2026-04-14 03:53 | 22.57116 | 47.01513 | 38148 ft | 435 kts | 287° |
| 2026-04-14 03:54 | 22.59574 | 46.95491 | 38140 ft | 436 kts | 287° |
| 2026-04-14 03:54 | 22.62009 | 46.89520 | 38149 ft | 436 kts | 287° |
| 2026-04-14 03:55 | 22.64459 | 46.83504 | 38153 ft | 436 kts | 287° |
| 2026-04-14 03:55 | 22.66913 | 46.77473 | 38148 ft | 436 kts | 287° |
| 2026-04-14 03:56 | 22.69349 | 46.71473 | 38150 ft | 438 kts | 287° |
| 2026-04-14 03:56 | 22.71809 | 46.65406 | 38148 ft | 439 kts | 287° |
| 2026-04-14 03:57 | 22.74274 | 46.59326 | 38151 ft | 439 kts | 287° |
| 2026-04-14 03:57 | 22.76719 | 46.53284 | 38153 ft | 440 kts | 287° |
| 2026-04-14 03:58 | 22.79181 | 46.47191 | 38153 ft | 440 kts | 287° |
| 2026-04-14 03:58 | 22.81508 | 46.41101 | 38158 ft | 436 kts | 281° |
| 2026-04-14 03:59 | 22.82629 | 46.34724 | 38156 ft | 428 kts | 271° |
| 2026-04-14 03:59 | 22.83178 | 46.28297 | 38145 ft | 427 kts | 269° |
| 2026-04-14 04:00 | 22.83616 | 46.21898 | 38141 ft | 426 kts | 269° |
| 2026-04-14 04:00 | 22.84060 | 46.15477 | 38142 ft | 426 kts | 269° |
| 2026-04-14 04:01 | 22.84516 | 46.09117 | 38135 ft | 424 kts | 270° |
| 2026-04-14 04:01 | 22.84979 | 46.02731 | 38128 ft | 424 kts | 270° |
| 2026-04-14 04:02 | 22.85437 | 45.96382 | 38131 ft | 424 kts | 270° |
| 2026-04-14 04:02 | 22.85895 | 45.89992 | 38122 ft | 423 kts | 270° |
| 2026-04-14 04:03 | 22.86347 | 45.83662 | 38125 ft | 422 kts | 270° |
| 2026-04-14 04:03 | 22.86798 | 45.77295 | 38135 ft | 422 kts | 270° |
| 2026-04-14 04:04 | 22.87244 | 45.70971 | 38125 ft | 422 kts | 270° |
| 2026-04-14 04:04 | 22.87690 | 45.64606 | 38119 ft | 422 kts | 270° |
| 2026-04-14 04:05 | 22.88129 | 45.58292 | 38135 ft | 422 kts | 270° |
| 2026-04-14 04:05 | 22.88570 | 45.51932 | 38123 ft | 421 kts | 270° |
| 2026-04-14 04:06 | 22.89005 | 45.45618 | 38141 ft | 421 kts | 270° |
| 2026-04-14 04:06 | 22.89438 | 45.39279 | 38125 ft | 421 kts | 270° |
| 2026-04-14 04:07 | 22.89870 | 45.32933 | 38135 ft | 420 kts | 271° |
| 2026-04-14 04:07 | 22.90296 | 45.26651 | 38135 ft | 419 kts | 271° |
| 2026-04-14 04:08 | 22.90721 | 45.20330 | 38134 ft | 419 kts | 271° |
| 2026-04-14 04:08 | 22.91143 | 45.14007 | 38135 ft | 420 kts | 271° |
| 2026-04-14 04:09 | 22.91560 | 45.07719 | 38135 ft | 420 kts | 271° |
| 2026-04-14 04:09 | 22.91979 | 45.01379 | 38134 ft | 420 kts | 271° |
| 2026-04-14 04:10 | 22.92393 | 44.95042 | 38138 ft | 421 kts | 271° |
| 2026-04-14 04:10 | 22.92804 | 44.88729 | 38138 ft | 422 kts | 271° |
| 2026-04-14 04:11 | 22.93216 | 44.82378 | 38137 ft | 421 kts | 271° |
| 2026-04-14 04:11 | 22.93625 | 44.76019 | 38133 ft | 421 kts | 271° |
| 2026-04-14 04:12 | 22.94046 | 44.69704 | 38134 ft | 422 kts | 273° |
| 2026-04-14 04:12 | 22.95338 | 44.63435 | 38135 ft | 427 kts | 282° |
| 2026-04-14 04:13 | 22.97164 | 44.57270 | 38132 ft | 428 kts | 284° |
| 2026-04-14 04:13 | 22.99073 | 44.51178 | 38130 ft | 428 kts | 284° |
| 2026-04-14 04:14 | 23.00982 | 44.45071 | 38129 ft | 428 kts | 284° |
| 2026-04-14 04:14 | 23.02881 | 44.38929 | 38131 ft | 428 kts | 285° |
| 2026-04-14 04:15 | 23.04771 | 44.32778 | 38129 ft | 429 kts | 284° |
| 2026-04-14 04:15 | 23.06646 | 44.26663 | 38130 ft | 428 kts | 284° |
| 2026-04-14 04:16 | 23.08529 | 44.20514 | 38133 ft | 429 kts | 285° |
| 2026-04-14 04:16 | 23.10404 | 44.14383 | 38132 ft | 429 kts | 285° |
| 2026-04-14 04:17 | 23.12291 | 44.08203 | 38132 ft | 430 kts | 285° |
| 2026-04-14 04:17 | 23.14162 | 44.02068 | 38145 ft | 429 kts | 285° |
| 2026-04-14 04:18 | 23.16044 | 43.95884 | 38135 ft | 430 kts | 285° |
| 2026-04-14 04:18 | 23.17922 | 43.89707 | 38137 ft | 430 kts | 285° |
| 2026-04-14 04:19 | 23.19798 | 43.83527 | 38138 ft | 430 kts | 285° |
| 2026-04-14 04:19 | 23.21658 | 43.77387 | 38140 ft | 430 kts | 285° |
| 2026-04-14 04:20 | 23.23526 | 43.71212 | 38142 ft | 428 kts | 285° |
| 2026-04-14 04:20 | 23.25375 | 43.65096 | 38145 ft | 423 kts | 285° |
| 2026-04-14 04:21 | 23.27200 | 43.59047 | 38150 ft | 422 kts | 285° |
| 2026-04-14 04:21 | 23.29030 | 43.52965 | 38148 ft | 422 kts | 285° |
| 2026-04-14 04:22 | 23.30847 | 43.46919 | 38148 ft | 422 kts | 284° |
| 2026-04-14 04:22 | 23.32678 | 43.40821 | 38156 ft | 422 kts | 284° |
| 2026-04-14 04:23 | 23.34490 | 43.34778 | 38154 ft | 422 kts | 284° |
| 2026-04-14 04:23 | 23.36309 | 43.28701 | 38154 ft | 422 kts | 284° |
| 2026-04-14 04:24 | 23.37823 | 43.23635 | 38156 ft | 422 kts | 284° |
| 2026-04-14 04:24 | 23.39935 | 43.16558 | 38157 ft | 423 kts | 284° |
| 2026-04-14 04:25 | 23.41447 | 43.11478 | 38161 ft | 423 kts | 284° |
| 2026-04-14 04:25 | 23.43261 | 43.05368 | 38159 ft | 423 kts | 284° |
| 2026-04-14 04:26 | 23.45059 | 42.99298 | 38161 ft | 423 kts | 284° |
| 2026-04-14 04:26 | 23.46873 | 42.93163 | 38160 ft | 425 kts | 284° |
| 2026-04-14 04:27 | 23.48679 | 42.87052 | 38160 ft | 425 kts | 284° |
| 2026-04-14 04:27 | 23.50492 | 42.80906 | 38162 ft | 425 kts | 284° |
| 2026-04-14 04:28 | 23.52292 | 42.74795 | 38162 ft | 425 kts | 284° |
| 2026-04-14 04:28 | 23.54103 | 42.68646 | 38159 ft | 425 kts | 284° |
| 2026-04-14 04:29 | 23.55902 | 42.62535 | 38160 ft | 425 kts | 284° |
| 2026-04-14 04:29 | 23.57706 | 42.56394 | 38159 ft | 425 kts | 284° |
| 2026-04-14 04:30 | 23.59510 | 42.50244 | 38160 ft | 425 kts | 284° |
| 2026-04-14 04:30 | 23.61311 | 42.44093 | 38157 ft | 424 kts | 284° |
| 2026-04-14 04:31 | 23.63096 | 42.37990 | 38162 ft | 424 kts | 284° |
| 2026-04-14 04:31 | 23.65777 | 42.28801 | 38156 ft | 423 kts | 284° |
| 2026-04-14 04:32 | 23.67562 | 42.22655 | 38153 ft | 424 kts | 284° |
| 2026-04-14 04:32 | 23.69327 | 42.16562 | 38155 ft | 423 kts | 284° |
| 2026-04-14 04:33 | 23.71096 | 42.10444 | 38154 ft | 421 kts | 284° |
| 2026-04-14 04:33 | 23.72852 | 42.04366 | 38152 ft | 421 kts | 284° |
| 2026-04-14 04:34 | 23.74617 | 41.98244 | 38159 ft | 421 kts | 284° |
| 2026-04-14 04:34 | 23.76383 | 41.92129 | 38149 ft | 421 kts | 284° |
| 2026-04-14 04:35 | 23.78138 | 41.86055 | 38143 ft | 421 kts | 284° |
| 2026-04-14 04:35 | 23.79901 | 41.79942 | 38149 ft | 421 kts | 284° |
| 2026-04-14 04:36 | 23.81659 | 41.73832 | 38146 ft | 422 kts | 284° |
| 2026-04-14 04:36 | 23.83405 | 41.67746 | 38146 ft | 422 kts | 284° |
| 2026-04-14 04:37 | 23.85164 | 41.61606 | 38143 ft | 422 kts | 284° |
| 2026-04-14 04:37 | 23.86908 | 41.55506 | 38148 ft | 422 kts | 284° |
| 2026-04-14 04:38 | 23.88656 | 41.49365 | 38128 ft | 422 kts | 284° |
| 2026-04-14 04:38 | 23.90383 | 41.43274 | 38140 ft | 422 kts | 284° |
| 2026-04-14 04:39 | 23.92123 | 41.37134 | 38121 ft | 422 kts | 284° |
| 2026-04-14 04:39 | 23.93860 | 41.31003 | 38129 ft | 421 kts | 284° |
| 2026-04-14 04:40 | 23.95595 | 41.24884 | 38124 ft | 421 kts | 284° |
| 2026-04-14 04:41 | 23.98183 | 41.15734 | 38118 ft | 421 kts | 284° |
| 2026-04-14 04:41 | 23.99902 | 41.09643 | 38120 ft | 420 kts | 284° |
| 2026-04-14 04:42 | 24.01624 | 41.03533 | 38114 ft | 419 kts | 284° |
| 2026-04-14 04:42 | 24.03340 | 40.97430 | 38112 ft | 419 kts | 284° |
| 2026-04-14 04:43 | 24.05047 | 40.91352 | 38109 ft | 419 kts | 284° |
| 2026-04-14 04:43 | 24.06756 | 40.85256 | 38117 ft | 417 kts | 284° |
| 2026-04-14 04:44 | 24.08446 | 40.79222 | 38114 ft | 416 kts | 284° |
| 2026-04-14 04:44 | 24.10144 | 40.73146 | 38118 ft | 416 kts | 284° |
| 2026-04-14 04:45 | 24.11826 | 40.67112 | 38116 ft | 416 kts | 284° |
| 2026-04-14 04:45 | 24.13519 | 40.61037 | 38113 ft | 416 kts | 284° |
| 2026-04-14 04:46 | 24.15207 | 40.54965 | 38112 ft | 416 kts | 284° |
| 2026-04-14 04:46 | 24.17380 | 40.49067 | 38104 ft | 419 kts | 293° |
| 2026-04-14 04:47 | 24.20008 | 40.43407 | 38117 ft | 420 kts | 294° |
| 2026-04-14 04:47 | 24.22738 | 40.37747 | 38118 ft | 419 kts | 295° |
| 2026-04-14 04:48 | 24.25474 | 40.32082 | 38113 ft | 419 kts | 295° |
| 2026-04-14 04:48 | 24.28178 | 40.26448 | 38110 ft | 419 kts | 294° |
| 2026-04-14 04:49 | 24.30892 | 40.20771 | 38112 ft | 419 kts | 295° |
| 2026-04-14 04:49 | 24.33600 | 40.15093 | 38111 ft | 419 kts | 295° |
| 2026-04-14 04:50 | 24.36285 | 40.09459 | 38113 ft | 419 kts | 294° |
| 2026-04-14 04:50 | 24.38992 | 40.03774 | 38116 ft | 419 kts | 294° |
| 2026-04-14 04:51 | 24.41675 | 39.98131 | 38119 ft | 418 kts | 295° |
| 2026-04-14 04:51 | 24.44365 | 39.92468 | 38124 ft | 418 kts | 295° |
| 2026-04-14 04:52 | 24.47055 | 39.86796 | 38127 ft | 418 kts | 295° |
| 2026-04-14 04:52 | 24.49722 | 39.81167 | 38124 ft | 418 kts | 295° |
| 2026-04-14 04:53 | 24.52409 | 39.75494 | 38129 ft | 417 kts | 296° |
| 2026-04-14 04:53 | 24.55760 | 39.70262 | 38129 ft | 423 kts | 310° |
| 2026-04-14 04:54 | 24.60285 | 39.66036 | 38130 ft | 428 kts | 318° |
| 2026-04-14 04:54 | 24.65086 | 39.62181 | 38113 ft | 429 kts | 320° |
| 2026-04-14 04:55 | 24.69955 | 39.58360 | 38115 ft | 429 kts | 320° |
| 2026-04-14 04:55 | 24.74776 | 39.54544 | 38110 ft | 428 kts | 320° |
| 2026-04-14 04:56 | 24.79607 | 39.50688 | 38106 ft | 427 kts | 319° |
| 2026-04-14 04:56 | 24.84428 | 39.46824 | 38107 ft | 427 kts | 319° |
| 2026-04-14 04:57 | 24.89210 | 39.42987 | 38105 ft | 427 kts | 319° |
| 2026-04-14 04:57 | 24.94027 | 39.39119 | 38097 ft | 428 kts | 319° |
| 2026-04-14 04:58 | 24.98848 | 39.35245 | 38099 ft | 428 kts | 319° |
| 2026-04-14 04:58 | 25.03630 | 39.31399 | 38100 ft | 427 kts | 319° |
| 2026-04-14 04:59 | 25.08445 | 39.27524 | 38094 ft | 427 kts | 319° |
| 2026-04-14 04:59 | 25.13222 | 39.23674 | 38100 ft | 426 kts | 319° |
| 2026-04-14 05:00 | 25.18021 | 39.19803 | 38095 ft | 427 kts | 319° |
| 2026-04-14 05:00 | 25.22435 | 39.15495 | 38094 ft | 420 kts | 307° |
| 2026-04-14 05:01 | 25.25848 | 39.10323 | 38082 ft | 417 kts | 301° |
| 2026-04-14 05:01 | 25.29014 | 39.04947 | 38088 ft | 417 kts | 300° |
| 2026-04-14 05:02 | 25.32141 | 38.99525 | 38080 ft | 417 kts | 300° |
| 2026-04-14 05:02 | 25.35258 | 38.94149 | 38077 ft | 417 kts | 300° |
| 2026-04-14 05:03 | 25.38401 | 38.88753 | 38078 ft | 417 kts | 300° |
| 2026-04-14 05:03 | 25.41021 | 38.84259 | 38058 ft | 417 kts | 300° |
| 2026-04-14 05:04 | 25.44171 | 38.78855 | 38061 ft | 417 kts | 300° |
| 2026-04-14 05:04 | 25.47310 | 38.73462 | 38059 ft | 417 kts | 300° |
| 2026-04-14 05:05 | 25.50451 | 38.68057 | 38055 ft | 417 kts | 300° |
| 2026-04-14 05:05 | 25.53579 | 38.62667 | 38050 ft | 417 kts | 300° |
| 2026-04-14 05:06 | 25.56715 | 38.57259 | 38047 ft | 416 kts | 300° |
| 2026-04-14 05:06 | 25.59826 | 38.51885 | 38049 ft | 416 kts | 300° |
| 2026-04-14 05:07 | 25.62964 | 38.46461 | 38043 ft | 416 kts | 300° |
| 2026-04-14 05:07 | 25.66072 | 38.41081 | 38040 ft | 416 kts | 300° |
| 2026-04-14 05:08 | 25.69197 | 38.35666 | 38047 ft | 417 kts | 300° |
| 2026-04-14 05:08 | 25.72325 | 38.30239 | 38043 ft | 417 kts | 300° |
| 2026-04-14 05:09 | 25.75457 | 38.24799 | 38037 ft | 417 kts | 300° |
| 2026-04-14 05:09 | 25.78572 | 38.19382 | 38036 ft | 417 kts | 300° |
| 2026-04-14 05:10 | 25.81680 | 38.13970 | 38039 ft | 417 kts | 300° |
| 2026-04-14 05:10 | 25.84806 | 38.08523 | 38039 ft | 417 kts | 300° |
| 2026-04-14 05:11 | 25.87907 | 38.03113 | 38034 ft | 417 kts | 300° |
| 2026-04-14 05:11 | 25.91022 | 37.97670 | 38053 ft | 417 kts | 300° |
| 2026-04-14 05:12 | 25.94137 | 37.92220 | 38053 ft | 417 kts | 301° |
| 2026-04-14 05:12 | 25.97226 | 37.86811 | 38060 ft | 417 kts | 300° |
| 2026-04-14 05:13 | 25.99952 | 37.81153 | 38063 ft | 415 kts | 290° |
| 2026-04-14 05:13 | 26.01355 | 37.74940 | 38069 ft | 414 kts | 280° |
| 2026-04-14 05:14 | 26.02259 | 37.68638 | 38068 ft | 414 kts | 279° |
| 2026-04-14 05:14 | 26.03080 | 37.62267 | 38072 ft | 415 kts | 279° |
| 2026-04-14 05:15 | 26.03912 | 37.55904 | 38064 ft | 415 kts | 279° |
| 2026-04-14 05:15 | 26.04756 | 37.49589 | 38058 ft | 414 kts | 279° |
| 2026-04-14 05:16 | 26.05609 | 37.43240 | 38052 ft | 414 kts | 279° |
| 2026-04-14 05:16 | 26.06450 | 37.36946 | 38040 ft | 413 kts | 279° |
| 2026-04-14 05:17 | 26.07294 | 37.30602 | 38024 ft | 413 kts | 279° |
| 2026-04-14 05:17 | 26.08139 | 37.24260 | 38029 ft | 413 kts | 279° |
| 2026-04-14 05:18 | 26.08974 | 37.17955 | 38015 ft | 413 kts | 279° |
| 2026-04-14 05:18 | 26.09809 | 37.11628 | 38006 ft | 412 kts | 279° |
| 2026-04-14 05:19 | 26.10636 | 37.05338 | 38005 ft | 412 kts | 279° |
| 2026-04-14 05:19 | 26.11465 | 36.99005 | 38008 ft | 413 kts | 279° |
| 2026-04-14 05:20 | 26.12290 | 36.92681 | 37985 ft | 412 kts | 280° |
| 2026-04-14 05:20 | 26.13105 | 36.86418 | 37982 ft | 411 kts | 280° |
| 2026-04-14 05:21 | 26.13923 | 36.80107 | 37982 ft | 410 kts | 280° |
| 2026-04-14 05:21 | 26.14733 | 36.73834 | 37986 ft | 410 kts | 280° |
| 2026-04-14 05:22 | 26.15543 | 36.67537 | 37979 ft | 410 kts | 280° |
| 2026-04-14 05:22 | 26.16344 | 36.61294 | 37970 ft | 409 kts | 280° |
| 2026-04-14 05:23 | 26.17179 | 36.55010 | 37966 ft | 409 kts | 283° |
| 2026-04-14 05:23 | 26.18960 | 36.49034 | 37959 ft | 406 kts | 297° |
| 2026-04-14 05:24 | 26.22167 | 36.43938 | 37966 ft | 405 kts | 310° |
| 2026-04-14 05:24 | 26.26033 | 36.39351 | 37967 ft | 406 kts | 313° |
| 2026-04-14 05:25 | 26.30005 | 36.34855 | 37980 ft | 407 kts | 313° |
| 2026-04-14 05:25 | 26.33948 | 36.30367 | 37974 ft | 408 kts | 313° |
| 2026-04-14 05:26 | 26.37905 | 36.25816 | 37972 ft | 408 kts | 312° |
| 2026-04-14 05:26 | 26.41835 | 36.21273 | 37981 ft | 406 kts | 312° |
| 2026-04-14 05:27 | 26.45757 | 36.16732 | 37966 ft | 405 kts | 312° |
| 2026-04-14 05:27 | 26.49650 | 36.12221 | 37983 ft | 405 kts | 312° |
| 2026-04-14 05:28 | 26.53566 | 36.07680 | 37984 ft | 405 kts | 312° |
| 2026-04-14 05:28 | 26.57482 | 36.03135 | 37986 ft | 405 kts | 312° |
| 2026-04-14 05:29 | 26.61370 | 35.98617 | 37989 ft | 405 kts | 312° |
| 2026-04-14 05:29 | 26.65286 | 35.94061 | 37978 ft | 405 kts | 312° |
| 2026-04-14 05:30 | 26.69170 | 35.89539 | 37987 ft | 406 kts | 312° |
| 2026-04-14 05:30 | 26.73091 | 35.84968 | 37992 ft | 406 kts | 312° |
| 2026-04-14 05:31 | 26.77008 | 35.80398 | 37996 ft | 406 kts | 312° |
| 2026-04-14 05:31 | 26.80897 | 35.75855 | 37997 ft | 406 kts | 312° |
| 2026-04-14 05:32 | 26.84813 | 35.71278 | 37996 ft | 405 kts | 312° |
| 2026-04-14 05:32 | 26.88709 | 35.66718 | 37998 ft | 404 kts | 312° |
| 2026-04-14 05:33 | 26.92601 | 35.62157 | 38003 ft | 404 kts | 312° |
| 2026-04-14 05:33 | 26.95839 | 35.58360 | 38003 ft | 404 kts | 312° |
| 2026-04-14 05:34 | 27.02312 | 35.50759 | 38003 ft | 404 kts | 312° |
| 2026-04-14 05:34 | 27.06177 | 35.46213 | 38009 ft | 404 kts | 312° |
| 2026-04-14 05:35 | 27.10065 | 35.41636 | 38013 ft | 404 kts | 312° |
| 2026-04-14 05:35 | 27.13925 | 35.37087 | 38012 ft | 404 kts | 312° |
| 2026-04-14 05:36 | 27.17804 | 35.32511 | 38016 ft | 404 kts | 312° |
| 2026-04-14 05:36 | 27.21658 | 35.27959 | 38016 ft | 404 kts | 312° |
| 2026-04-14 05:37 | 27.25545 | 35.23363 | 38019 ft | 403 kts | 313° |
| 2026-04-14 05:37 | 27.29406 | 35.18793 | 38021 ft | 402 kts | 313° |
| 2026-04-14 05:38 | 27.33229 | 35.14263 | 38021 ft | 401 kts | 313° |
| 2026-04-14 05:38 | 27.37079 | 35.09697 | 38021 ft | 401 kts | 313° |
| 2026-04-14 05:39 | 27.40927 | 35.05128 | 38042 ft | 401 kts | 312° |
| 2026-04-14 05:39 | 27.44758 | 35.00574 | 38025 ft | 403 kts | 312° |
| 2026-04-14 05:40 | 27.48601 | 34.96000 | 38028 ft | 402 kts | 313° |
| 2026-04-14 05:40 | 27.52495 | 34.91465 | 38028 ft | 401 kts | 315° |
| 2026-04-14 05:41 | 27.56562 | 34.87136 | 38030 ft | 401 kts | 316° |
| 2026-04-14 05:41 | 27.60641 | 34.82892 | 38026 ft | 401 kts | 316° |
| 2026-04-14 05:42 | 27.64747 | 34.78589 | 38027 ft | 401 kts | 316° |
| 2026-04-14 05:42 | 27.68799 | 34.74310 | 38033 ft | 401 kts | 315° |
| 2026-04-14 05:43 | 27.72874 | 34.69992 | 38030 ft | 399 kts | 316° |
| 2026-04-14 05:43 | 27.76904 | 34.65716 | 38058 ft | 398 kts | 316° |
| 2026-04-14 05:44 | 27.80954 | 34.61416 | 38048 ft | 399 kts | 316° |
| 2026-04-14 05:44 | 27.85005 | 34.57110 | 38055 ft | 400 kts | 315° |
| 2026-04-14 05:45 | 27.88373 | 34.53527 | 38068 ft | 400 kts | 316° |
| 2026-04-14 05:45 | 27.92435 | 34.49202 | 38076 ft | 400 kts | 315° |
| 2026-04-14 05:46 | 27.96457 | 34.44914 | 38077 ft | 398 kts | 316° |
| 2026-04-14 05:46 | 28.00349 | 34.40482 | 38078 ft | 395 kts | 310° |
| 2026-04-14 05:47 | 28.03882 | 34.35749 | 38074 ft | 395 kts | 309° |
| 2026-04-14 05:47 | 28.07372 | 34.30924 | 38072 ft | 395 kts | 309° |
| 2026-04-14 05:48 | 28.10852 | 34.26083 | 38068 ft | 396 kts | 309° |
| 2026-04-14 05:48 | 28.14338 | 34.21242 | 38081 ft | 396 kts | 309° |
| 2026-04-14 05:49 | 28.17806 | 34.16430 | 38072 ft | 396 kts | 309° |
| 2026-04-14 05:49 | 28.21292 | 34.11591 | 38102 ft | 396 kts | 309° |
| 2026-04-14 05:50 | 28.24781 | 34.06737 | 38076 ft | 395 kts | 309° |
| 2026-04-14 05:50 | 28.28242 | 34.01928 | 38077 ft | 395 kts | 309° |
| 2026-04-14 05:51 | 28.31727 | 33.97078 | 38094 ft | 395 kts | 309° |
| 2026-04-14 05:51 | 28.35181 | 33.92259 | 38084 ft | 394 kts | 309° |
| 2026-04-14 05:52 | 28.38635 | 33.87429 | 38095 ft | 392 kts | 309° |
| 2026-04-14 05:52 | 28.42091 | 33.82595 | 38095 ft | 392 kts | 309° |
| 2026-04-14 05:53 | 28.45520 | 33.77796 | 38080 ft | 393 kts | 309° |
| 2026-04-14 05:53 | 28.48973 | 33.72961 | 38097 ft | 393 kts | 309° |
| 2026-04-14 05:54 | 28.52422 | 33.68120 | 38062 ft | 393 kts | 309° |
| 2026-04-14 05:54 | 28.55843 | 33.63320 | 38069 ft | 392 kts | 309° |
| 2026-04-14 05:55 | 28.59276 | 33.58484 | 38067 ft | 392 kts | 309° |
| 2026-04-14 05:55 | 28.62710 | 33.53643 | 38074 ft | 392 kts | 309° |
| 2026-04-14 05:56 | 28.66121 | 33.48840 | 38078 ft | 391 kts | 309° |
| 2026-04-14 05:56 | 28.69547 | 33.44009 | 38072 ft | 391 kts | 309° |
| 2026-04-14 05:57 | 28.72979 | 33.39169 | 38096 ft | 391 kts | 309° |
| 2026-04-14 05:57 | 28.76382 | 33.34355 | 38073 ft | 391 kts | 309° |
| 2026-04-14 05:58 | 28.79802 | 33.29509 | 38074 ft | 391 kts | 309° |
| 2026-04-14 05:58 | 28.83201 | 33.24688 | 38072 ft | 391 kts | 309° |
| 2026-04-14 05:59 | 28.86621 | 33.19834 | 38079 ft | 391 kts | 309° |
| 2026-04-14 05:59 | 28.90031 | 33.14990 | 38078 ft | 391 kts | 309° |
| 2026-04-14 06:00 | 28.93411 | 33.10183 | 38075 ft | 390 kts | 309° |
| 2026-04-14 06:00 | 28.96803 | 33.05352 | 38093 ft | 389 kts | 309° |
| 2026-04-14 06:01 | 29.00196 | 33.00514 | 38081 ft | 389 kts | 309° |
| 2026-04-14 06:01 | 29.03567 | 32.95703 | 38086 ft | 389 kts | 309° |
| 2026-04-14 06:02 | 29.06958 | 32.90858 | 38086 ft | 389 kts | 309° |
| 2026-04-14 06:02 | 29.10341 | 32.86017 | 38092 ft | 388 kts | 309° |
| 2026-04-14 06:03 | 29.13686 | 32.81227 | 38091 ft | 387 kts | 308° |
| 2026-04-14 06:04 | 29.18721 | 32.74004 | 38093 ft | 386 kts | 308° |
| 2026-04-14 06:04 | 29.22077 | 32.69182 | 38087 ft | 387 kts | 308° |
| 2026-04-14 06:05 | 29.25422 | 32.64372 | 38087 ft | 387 kts | 308° |
| 2026-04-14 06:05 | 29.28771 | 32.59547 | 38103 ft | 386 kts | 308° |
| 2026-04-14 06:06 | 29.32096 | 32.54717 | 38099 ft | 385 kts | 308° |
| 2026-04-14 06:06 | 29.35389 | 32.49916 | 38099 ft | 385 kts | 309° |
| 2026-04-14 06:07 | 29.38706 | 32.45075 | 38105 ft | 385 kts | 308° |
| 2026-04-14 06:07 | 29.42028 | 32.40225 | 38104 ft | 385 kts | 308° |
| 2026-04-14 06:08 | 29.45322 | 32.35410 | 38109 ft | 385 kts | 308° |
| 2026-04-14 06:08 | 29.48633 | 32.30566 | 38109 ft | 384 kts | 308° |
| 2026-04-14 06:09 | 29.51935 | 32.25729 | 38111 ft | 383 kts | 308° |
| 2026-04-14 06:09 | 29.55224 | 32.20904 | 38111 ft | 383 kts | 308° |
| 2026-04-14 06:10 | 29.58499 | 32.16095 | 38117 ft | 383 kts | 308° |
| 2026-04-14 06:10 | 29.61786 | 32.11263 | 38116 ft | 383 kts | 308° |
| 2026-04-14 06:11 | 29.65054 | 32.06453 | 38119 ft | 383 kts | 308° |
| 2026-04-14 06:11 | 29.68336 | 32.01618 | 38117 ft | 382 kts | 308° |
| 2026-04-14 06:12 | 29.71594 | 31.96810 | 38117 ft | 382 kts | 308° |
| 2026-04-14 06:12 | 29.74867 | 31.91975 | 38132 ft | 382 kts | 308° |
| 2026-04-14 06:13 | 29.78117 | 31.87163 | 38117 ft | 383 kts | 307° |
| 2026-04-14 06:13 | 29.81334 | 31.82256 | 38115 ft | 383 kts | 306° |
| 2026-04-14 06:14 | 29.84496 | 31.77346 | 38117 ft | 383 kts | 306° |
| 2026-04-14 06:14 | 29.87669 | 31.72412 | 38122 ft | 381 kts | 306° |
| 2026-04-14 06:15 | 29.90819 | 31.67521 | 38124 ft | 381 kts | 306° |
| 2026-04-14 06:15 | 29.93990 | 31.62598 | 38126 ft | 381 kts | 306° |
| 2026-04-14 06:16 | 29.97159 | 31.57673 | 38126 ft | 381 kts | 306° |
| 2026-04-14 06:16 | 30.00307 | 31.52775 | 38128 ft | 381 kts | 306° |
| 2026-04-14 06:17 | 30.03464 | 31.47857 | 38130 ft | 380 kts | 306° |
| 2026-04-14 06:17 | 30.06600 | 31.42965 | 38129 ft | 380 kts | 306° |
| 2026-04-14 06:18 | 30.09943 | 31.38231 | 38129 ft | 381 kts | 313° |
| 2026-04-14 06:18 | 30.13755 | 31.33957 | 38129 ft | 381 kts | 315° |
| 2026-04-14 06:19 | 30.17622 | 31.29807 | 38129 ft | 382 kts | 315° |
| 2026-04-14 06:19 | 30.21539 | 31.25628 | 38128 ft | 382 kts | 315° |
| 2026-04-14 06:20 | 30.25445 | 31.21441 | 38124 ft | 382 kts | 315° |
| 2026-04-14 06:20 | 30.29308 | 31.17285 | 38129 ft | 381 kts | 315° |
| 2026-04-14 06:21 | 30.33193 | 31.13095 | 38129 ft | 381 kts | 315° |
| 2026-04-14 06:21 | 30.37077 | 31.08902 | 38129 ft | 381 kts | 315° |
| 2026-04-14 06:22 | 30.40940 | 31.04728 | 38124 ft | 381 kts | 315° |
| 2026-04-14 06:22 | 30.44818 | 31.00532 | 38129 ft | 381 kts | 315° |
| 2026-04-14 06:23 | 30.48043 | 30.97040 | 38133 ft | 381 kts | 315° |
| 2026-04-14 06:23 | 30.52556 | 30.92147 | 38135 ft | 381 kts | 314° |
| 2026-04-14 06:24 | 30.55780 | 30.88647 | 38130 ft | 381 kts | 314° |
| 2026-04-14 06:24 | 30.59667 | 30.84424 | 38136 ft | 381 kts | 314° |
| 2026-04-14 06:25 | 30.63526 | 30.80227 | 38138 ft | 381 kts | 314° |
| 2026-04-14 06:25 | 30.67398 | 30.76010 | 38136 ft | 381 kts | 314° |
| 2026-04-14 06:26 | 30.71272 | 30.71785 | 38139 ft | 381 kts | 314° |
| 2026-04-14 06:26 | 30.75122 | 30.67583 | 38137 ft | 381 kts | 314° |
| 2026-04-14 06:27 | 30.78996 | 30.63350 | 38141 ft | 381 kts | 314° |
| 2026-04-14 06:27 | 30.82836 | 30.59149 | 38141 ft | 381 kts | 314° |
| 2026-04-14 06:28 | 30.86709 | 30.54907 | 38143 ft | 381 kts | 314° |
| 2026-04-14 06:28 | 30.90559 | 30.50685 | 38146 ft | 382 kts | 314° |
| 2026-04-14 06:29 | 30.94427 | 30.46438 | 38143 ft | 382 kts | 314° |
| 2026-04-14 06:29 | 30.98300 | 30.42181 | 38149 ft | 382 kts | 314° |
| 2026-04-14 06:30 | 31.02146 | 30.37949 | 38143 ft | 381 kts | 314° |
| 2026-04-14 06:30 | 31.05996 | 30.33673 | 38154 ft | 380 kts | 311° |
| 2026-04-14 06:31 | 31.09166 | 30.28778 | 38147 ft | 378 kts | 299° |
| 2026-04-14 06:31 | 31.11178 | 30.23125 | 38149 ft | 379 kts | 291° |
| 2026-04-14 06:32 | 31.12807 | 30.17248 | 38153 ft | 380 kts | 289° |
| 2026-04-14 06:32 | 31.14372 | 30.11338 | 38155 ft | 380 kts | 289° |
| 2026-04-14 06:33 | 31.15938 | 30.05484 | 38156 ft | 380 kts | 289° |
| 2026-04-14 06:33 | 31.17529 | 29.99600 | 38157 ft | 379 kts | 289° |
| 2026-04-14 06:34 | 31.19633 | 29.93972 | 38156 ft | 378 kts | 301° |
| 2026-04-14 06:34 | 31.21056 | 29.91425 | 38158 ft | 378 kts | 303° |
| 2026-04-14 06:34 | 31.24113 | 29.86408 | 38157 ft | 378 kts | 305° |
| 2026-04-14 06:35 | 31.27242 | 29.81450 | 38174 ft | 378 kts | 305° |
| 2026-04-14 06:35 | 31.30345 | 29.76521 | 38155 ft | 378 kts | 305° |
| 2026-04-14 06:36 | 31.33443 | 29.71560 | 38155 ft | 377 kts | 305° |
| 2026-04-14 06:36 | 31.36542 | 29.66577 | 38159 ft | 377 kts | 304° |
| 2026-04-14 06:37 | 31.39634 | 29.61594 | 38159 ft | 377 kts | 304° |
| 2026-04-14 06:37 | 31.42704 | 29.56643 | 38159 ft | 377 kts | 304° |
| 2026-04-14 06:38 | 31.45789 | 29.51664 | 38160 ft | 377 kts | 304° |
| 2026-04-14 06:38 | 31.48868 | 29.46686 | 38161 ft | 376 kts | 304° |
| 2026-04-14 06:39 | 31.51927 | 29.41736 | 38167 ft | 376 kts | 304° |
| 2026-04-14 06:39 | 31.55000 | 29.36757 | 38167 ft | 376 kts | 304° |
| 2026-04-14 06:40 | 31.58052 | 29.31804 | 38167 ft | 376 kts | 304° |
| 2026-04-14 06:40 | 31.61114 | 29.26820 | 38167 ft | 376 kts | 304° |
| 2026-04-14 06:41 | 31.64170 | 29.21835 | 38170 ft | 375 kts | 304° |
| 2026-04-14 06:41 | 31.67214 | 29.16862 | 38170 ft | 374 kts | 304° |
| 2026-04-14 06:42 | 31.70232 | 29.11925 | 38179 ft | 374 kts | 304° |
| 2026-04-14 06:42 | 31.73490 | 29.07129 | 38179 ft | 377 kts | 311° |
| 2026-04-14 06:43 | 31.77431 | 29.03003 | 38179 ft | 380 kts | 316° |
| 2026-04-14 06:43 | 31.81519 | 28.99052 | 38179 ft | 380 kts | 316° |
| 2026-04-14 06:44 | 31.85608 | 28.95152 | 38179 ft | 380 kts | 316° |
| 2026-04-14 06:44 | 31.89716 | 28.91213 | 38181 ft | 380 kts | 316° |
| 2026-04-14 06:45 | 31.93781 | 28.87291 | 38178 ft | 379 kts | 316° |
| 2026-04-14 06:45 | 31.97872 | 28.83334 | 38181 ft | 379 kts | 316° |
| 2026-04-14 06:46 | 32.04000 | 28.77396 | 38179 ft | 380 kts | 316° |
| 2026-04-14 06:47 | 32.08070 | 28.73448 | 38177 ft | 381 kts | 316° |
| 2026-04-14 06:47 | 32.12170 | 28.69467 | 38177 ft | 381 kts | 315° |
| 2026-04-14 06:48 | 32.16244 | 28.65506 | 38179 ft | 380 kts | 315° |
| 2026-04-14 06:48 | 32.20331 | 28.61528 | 38174 ft | 379 kts | 315° |
| 2026-04-14 06:49 | 32.24407 | 28.57556 | 38176 ft | 379 kts | 315° |
| 2026-04-14 06:49 | 32.28455 | 28.53606 | 38172 ft | 379 kts | 315° |
| 2026-04-14 06:50 | 32.32528 | 28.49627 | 38201 ft | 379 kts | 315° |
| 2026-04-14 06:50 | 32.36594 | 28.45650 | 38173 ft | 378 kts | 315° |
| 2026-04-14 06:51 | 32.40637 | 28.41691 | 38171 ft | 378 kts | 315° |
| 2026-04-14 06:51 | 32.44704 | 28.37704 | 38170 ft | 378 kts | 315° |
| 2026-04-14 06:52 | 32.48737 | 28.33744 | 38173 ft | 378 kts | 315° |
| 2026-04-14 06:52 | 32.52802 | 28.29749 | 38171 ft | 379 kts | 315° |
| 2026-04-14 06:53 | 32.56847 | 28.25768 | 38169 ft | 379 kts | 315° |
| 2026-04-14 06:53 | 32.60917 | 28.21759 | 38171 ft | 379 kts | 315° |
| 2026-04-14 06:54 | 32.64951 | 28.17780 | 38170 ft | 379 kts | 315° |
| 2026-04-14 06:54 | 32.69021 | 28.13760 | 38170 ft | 379 kts | 315° |
| 2026-04-14 06:55 | 32.73051 | 28.09775 | 38169 ft | 379 kts | 315° |
| 2026-04-14 06:55 | 32.77108 | 28.05759 | 38169 ft | 379 kts | 314° |
| 2026-04-14 06:56 | 32.81166 | 28.01736 | 38169 ft | 379 kts | 314° |
| 2026-04-14 06:56 | 32.85189 | 27.97744 | 38171 ft | 379 kts | 314° |
| 2026-04-14 06:57 | 32.89239 | 27.93719 | 38169 ft | 379 kts | 314° |
| 2026-04-14 06:57 | 32.93290 | 27.89688 | 38171 ft | 379 kts | 314° |
| 2026-04-14 06:58 | 32.97322 | 27.85672 | 38163 ft | 379 kts | 314° |
| 2026-04-14 06:58 | 33.01380 | 27.81624 | 38185 ft | 380 kts | 314° |
| 2026-04-14 06:59 | 33.05415 | 27.77595 | 38164 ft | 380 kts | 314° |
| 2026-04-14 06:59 | 33.09479 | 27.73532 | 38172 ft | 380 kts | 314° |
| 2026-04-14 07:00 | 33.13519 | 27.69488 | 38183 ft | 380 kts | 314° |
| 2026-04-14 07:00 | 33.17568 | 27.65430 | 38167 ft | 380 kts | 314° |
| 2026-04-14 07:01 | 33.21624 | 27.61358 | 38169 ft | 380 kts | 314° |
| 2026-04-14 07:01 | 33.25677 | 27.57285 | 38174 ft | 380 kts | 314° |
| 2026-04-14 07:02 | 33.29708 | 27.53230 | 38176 ft | 381 kts | 314° |
| 2026-04-14 07:02 | 33.33775 | 27.49132 | 38177 ft | 381 kts | 314° |
| 2026-04-14 07:03 | 33.37825 | 27.45048 | 38178 ft | 382 kts | 314° |
| 2026-04-14 07:03 | 33.41202 | 27.41638 | 38177 ft | 381 kts | 314° |
| 2026-04-14 07:04 | 33.45262 | 27.37534 | 38177 ft | 382 kts | 314° |
| 2026-04-14 07:04 | 33.49333 | 27.33413 | 38177 ft | 381 kts | 314° |
| 2026-04-14 07:05 | 33.53367 | 27.29324 | 38175 ft | 381 kts | 314° |
| 2026-04-14 07:05 | 33.57435 | 27.25195 | 38180 ft | 381 kts | 314° |
| 2026-04-14 07:06 | 33.61464 | 27.21101 | 38178 ft | 381 kts | 313° |
| 2026-04-14 07:06 | 33.65520 | 27.16975 | 38179 ft | 382 kts | 313° |
| 2026-04-14 07:07 | 33.69587 | 27.12830 | 38179 ft | 383 kts | 313° |
| 2026-04-14 07:07 | 33.73644 | 27.08691 | 38178 ft | 384 kts | 313° |
| 2026-04-14 07:08 | 33.77728 | 27.04521 | 38178 ft | 384 kts | 313° |
| 2026-04-14 07:08 | 33.81778 | 27.00380 | 38180 ft | 384 kts | 313° |
| 2026-04-14 07:09 | 33.85849 | 26.96211 | 38178 ft | 384 kts | 313° |
| 2026-04-14 07:09 | 33.89923 | 26.92034 | 38188 ft | 384 kts | 313° |
| 2026-04-14 07:10 | 33.93977 | 26.87870 | 38178 ft | 385 kts | 313° |
| 2026-04-14 07:10 | 33.98060 | 26.83672 | 38301 ft | 387 kts | 313° |
| 2026-04-14 07:10 | 34.00122 | 26.81572 | 38543 ft | 388 kts | 314° |
| 2026-04-14 07:11 | 34.02231 | 26.79533 | 38882 ft | 387 kts | 315° |
| 2026-04-14 07:11 | 34.04337 | 26.77569 | 39114 ft | 386 kts | 316° |
| 2026-04-14 07:11 | 34.06486 | 26.75594 | 39264 ft | 388 kts | 316° |
| 2026-04-14 07:11 | 34.08640 | 26.73619 | 39382 ft | 389 kts | 316° |
| 2026-04-14 07:12 | 34.10807 | 26.71628 | 39542 ft | 390 kts | 316° |
| 2026-04-14 07:12 | 34.12947 | 26.69654 | 39686 ft | 391 kts | 316° |
| 2026-04-14 07:12 | 34.15119 | 26.67643 | 39832 ft | 392 kts | 316° |
| 2026-04-14 07:12 | 34.17290 | 26.65627 | 39979 ft | 393 kts | 316° |
| 2026-04-14 07:13 | 34.19461 | 26.63607 | 40146 ft | 394 kts | 316° |
| 2026-04-14 07:13 | 34.23843 | 26.59518 | 40186 ft | 401 kts | 316° |
| 2026-04-14 07:14 | 34.28292 | 26.55360 | 40194 ft | 410 kts | 316° |
| 2026-04-14 07:14 | 34.32862 | 26.51089 | 40188 ft | 418 kts | 316° |
| 2026-04-14 07:15 | 34.37484 | 26.46763 | 40184 ft | 423 kts | 316° |
| 2026-04-14 07:15 | 34.42154 | 26.42394 | 40187 ft | 423 kts | 316° |
| 2026-04-14 07:16 | 34.46812 | 26.38025 | 40181 ft | 422 kts | 316° |
| 2026-04-14 07:16 | 34.51469 | 26.33647 | 40181 ft | 423 kts | 316° |
| 2026-04-14 07:17 | 34.56119 | 26.29267 | 40182 ft | 424 kts | 316° |
| 2026-04-14 07:17 | 34.60790 | 26.24865 | 40177 ft | 424 kts | 316° |
| 2026-04-14 07:18 | 34.65434 | 26.20481 | 40176 ft | 425 kts | 316° |
| 2026-04-14 07:18 | 34.70103 | 26.16067 | 40176 ft | 425 kts | 316° |
| 2026-04-14 07:19 | 34.74782 | 26.11636 | 40168 ft | 425 kts | 316° |
| 2026-04-14 07:19 | 34.79430 | 26.07228 | 40178 ft | 425 kts | 316° |
| 2026-04-14 07:20 | 34.84113 | 26.02780 | 40168 ft | 428 kts | 316° |
| 2026-04-14 07:20 | 34.88784 | 25.98338 | 40162 ft | 428 kts | 316° |
| 2026-04-14 07:21 | 34.93484 | 25.93862 | 40167 ft | 428 kts | 316° |
| 2026-04-14 07:21 | 34.98173 | 25.89391 | 40163 ft | 427 kts | 316° |
| 2026-04-14 07:22 | 35.02871 | 25.84902 | 40147 ft | 427 kts | 316° |
| 2026-04-14 07:22 | 35.07526 | 25.80449 | 40150 ft | 428 kts | 316° |
| 2026-04-14 07:23 | 35.12211 | 25.75951 | 40131 ft | 429 kts | 316° |
| 2026-04-14 07:23 | 35.16906 | 25.71420 | 40144 ft | 429 kts | 316° |
| 2026-04-14 07:24 | 35.21575 | 25.66909 | 40128 ft | 429 kts | 316° |
| 2026-04-14 07:24 | 35.26284 | 25.62373 | 40128 ft | 430 kts | 315° |
| 2026-04-14 07:25 | 35.30997 | 25.57836 | 40127 ft | 430 kts | 315° |
| 2026-04-14 07:25 | 35.35685 | 25.53312 | 40127 ft | 430 kts | 315° |
| 2026-04-14 07:26 | 35.40400 | 25.48753 | 40126 ft | 431 kts | 315° |
| 2026-04-14 07:26 | 35.45121 | 25.44181 | 40129 ft | 432 kts | 316° |
| 2026-04-14 07:27 | 35.49825 | 25.39620 | 40124 ft | 432 kts | 315° |
| 2026-04-14 07:27 | 35.54520 | 25.35062 | 40130 ft | 432 kts | 315° |
| 2026-04-14 07:28 | 35.59246 | 25.30465 | 40124 ft | 432 kts | 315° |
| 2026-04-14 07:28 | 35.63945 | 25.25887 | 40132 ft | 433 kts | 315° |
| 2026-04-14 07:29 | 35.68672 | 25.21276 | 40134 ft | 433 kts | 315° |
| 2026-04-14 07:29 | 35.73384 | 25.16672 | 40146 ft | 433 kts | 315° |
| 2026-04-14 07:30 | 35.78119 | 25.12038 | 40140 ft | 433 kts | 315° |
| 2026-04-14 07:30 | 35.82815 | 25.07434 | 40144 ft | 433 kts | 315° |
| 2026-04-14 07:31 | 35.87538 | 25.02797 | 40141 ft | 433 kts | 315° |
| 2026-04-14 07:31 | 35.92253 | 24.98162 | 40140 ft | 434 kts | 315° |
| 2026-04-14 07:32 | 35.96955 | 24.93530 | 40152 ft | 435 kts | 315° |
| 2026-04-14 07:32 | 36.01709 | 24.88839 | 40151 ft | 437 kts | 315° |
| 2026-04-14 07:33 | 36.06462 | 24.84144 | 40150 ft | 437 kts | 315° |
| 2026-04-14 07:33 | 36.11214 | 24.79440 | 40155 ft | 437 kts | 315° |
| 2026-04-14 07:34 | 36.20683 | 24.70042 | 40148 ft | 437 kts | 315° |
| 2026-04-14 07:35 | 36.25397 | 24.65352 | 40161 ft | 437 kts | 315° |
| 2026-04-14 07:35 | 36.30150 | 24.60615 | 40144 ft | 438 kts | 315° |
| 2026-04-14 07:36 | 36.34907 | 24.55868 | 40146 ft | 438 kts | 315° |
| 2026-04-14 07:36 | 36.39636 | 24.51141 | 40144 ft | 438 kts | 315° |
| 2026-04-14 07:37 | 36.44385 | 24.46386 | 40148 ft | 438 kts | 315° |
| 2026-04-14 07:37 | 36.49144 | 24.41613 | 40145 ft | 438 kts | 315° |
| 2026-04-14 07:38 | 36.53867 | 24.36868 | 40163 ft | 438 kts | 314° |
| 2026-04-14 07:38 | 36.58627 | 24.32078 | 40149 ft | 440 kts | 314° |
| 2026-04-14 07:39 | 36.63368 | 24.27299 | 40146 ft | 440 kts | 314° |
| 2026-04-14 07:39 | 36.68103 | 24.22519 | 40151 ft | 440 kts | 314° |
| 2026-04-14 07:40 | 36.72858 | 24.17713 | 40150 ft | 440 kts | 314° |
| 2026-04-14 07:40 | 36.77617 | 24.12892 | 40153 ft | 440 kts | 314° |
| 2026-04-14 07:41 | 36.82377 | 24.08063 | 40174 ft | 440 kts | 314° |
| 2026-04-14 07:41 | 36.87109 | 24.03254 | 40153 ft | 441 kts | 314° |
| 2026-04-14 07:42 | 36.91891 | 23.98387 | 40158 ft | 442 kts | 314° |
| 2026-04-14 07:42 | 36.96639 | 23.93552 | 40157 ft | 442 kts | 314° |
| 2026-04-14 07:43 | 37.01417 | 23.88680 | 40161 ft | 442 kts | 314° |
| 2026-04-14 07:43 | 37.06189 | 23.83805 | 40160 ft | 442 kts | 314° |
| 2026-04-14 07:44 | 37.10930 | 23.78952 | 40180 ft | 442 kts | 314° |
| 2026-04-14 07:44 | 37.14904 | 23.74878 | 40171 ft | 443 kts | 314° |
| 2026-04-14 07:45 | 37.20485 | 23.69146 | 40165 ft | 446 kts | 314° |
| 2026-04-14 07:45 | 37.25264 | 23.64231 | 40165 ft | 446 kts | 314° |
| 2026-04-14 07:46 | 37.29265 | 23.60111 | 40166 ft | 446 kts | 314° |
| 2026-04-14 07:46 | 37.34856 | 23.54342 | 40165 ft | 446 kts | 314° |
| 2026-04-14 07:47 | 37.38852 | 23.50212 | 40183 ft | 446 kts | 314° |
| 2026-04-14 07:47 | 37.43659 | 23.45234 | 40167 ft | 448 kts | 314° |
| 2026-04-14 07:48 | 37.48477 | 23.40236 | 40167 ft | 449 kts | 313° |
| 2026-04-14 07:48 | 37.53273 | 23.35252 | 40166 ft | 449 kts | 314° |
| 2026-04-14 07:49 | 37.58114 | 23.30215 | 40170 ft | 449 kts | 314° |
| 2026-04-14 07:49 | 37.62944 | 23.25181 | 40167 ft | 449 kts | 314° |
| 2026-04-14 07:50 | 37.67749 | 23.20163 | 40185 ft | 449 kts | 314° |
| 2026-04-14 07:50 | 37.72549 | 23.15141 | 40167 ft | 450 kts | 314° |
| 2026-04-14 07:51 | 37.77385 | 23.10074 | 40172 ft | 450 kts | 313° |
| 2026-04-14 07:51 | 37.82193 | 23.05026 | 40166 ft | 451 kts | 313° |
| 2026-04-14 07:52 | 37.87038 | 22.99931 | 40162 ft | 452 kts | 313° |
| 2026-04-14 07:52 | 37.91846 | 22.94867 | 40154 ft | 452 kts | 313° |
| 2026-04-14 07:53 | 37.96572 | 22.89629 | 40156 ft | 450 kts | 311° |
| 2026-04-14 07:53 | 38.01182 | 22.84233 | 40148 ft | 450 kts | 311° |
| 2026-04-14 07:54 | 38.05757 | 22.78851 | 40149 ft | 450 kts | 311° |
| 2026-04-14 07:54 | 38.10378 | 22.73439 | 40149 ft | 451 kts | 311° |
| 2026-04-14 07:55 | 38.14989 | 22.68067 | 40146 ft | 452 kts | 311° |
| 2026-04-14 07:55 | 38.19642 | 22.62660 | 40146 ft | 452 kts | 311° |
| 2026-04-14 07:56 | 38.24262 | 22.57283 | 40152 ft | 452 kts | 311° |
| 2026-04-14 07:56 | 38.28928 | 22.51838 | 40143 ft | 454 kts | 311° |
| 2026-04-14 07:57 | 38.33563 | 22.46418 | 40145 ft | 454 kts | 311° |
| 2026-04-14 07:57 | 38.38239 | 22.40941 | 40143 ft | 456 kts | 311° |
| 2026-04-14 07:58 | 38.42895 | 22.35477 | 40143 ft | 456 kts | 311° |
| 2026-04-14 07:58 | 38.47578 | 22.29971 | 40140 ft | 456 kts | 311° |
| 2026-04-14 07:59 | 38.52224 | 22.24500 | 40139 ft | 456 kts | 311° |
| 2026-04-14 07:59 | 38.56904 | 22.18977 | 40131 ft | 456 kts | 311° |
| 2026-04-14 08:00 | 38.61541 | 22.13491 | 40137 ft | 457 kts | 311° |
| 2026-04-14 08:00 | 38.66212 | 22.07953 | 40142 ft | 457 kts | 311° |
| 2026-04-14 08:01 | 38.70863 | 22.02426 | 40133 ft | 458 kts | 311° |
| 2026-04-14 08:01 | 38.75541 | 21.96860 | 40128 ft | 457 kts | 311° |
| 2026-04-14 08:02 | 38.80205 | 21.91300 | 40122 ft | 457 kts | 311° |
| 2026-04-14 08:02 | 38.84852 | 21.85750 | 40121 ft | 458 kts | 311° |
| 2026-04-14 08:03 | 38.89522 | 21.80159 | 40123 ft | 458 kts | 311° |
| 2026-04-14 08:03 | 38.94169 | 21.74585 | 40116 ft | 459 kts | 311° |
| 2026-04-14 08:04 | 38.98824 | 21.68993 | 40109 ft | 460 kts | 311° |
| 2026-04-14 08:04 | 39.03513 | 21.63353 | 40129 ft | 460 kts | 311° |
| 2026-04-14 08:05 | 39.08168 | 21.57743 | 40140 ft | 460 kts | 311° |
| 2026-04-14 08:05 | 39.12859 | 21.52073 | 40106 ft | 461 kts | 311° |
| 2026-04-14 08:06 | 39.17518 | 21.46432 | 40128 ft | 462 kts | 311° |
| 2026-04-14 08:06 | 39.22214 | 21.40739 | 40133 ft | 462 kts | 311° |
| 2026-04-14 08:07 | 39.26897 | 21.35049 | 40124 ft | 462 kts | 311° |
| 2026-04-14 08:07 | 39.31549 | 21.29385 | 40122 ft | 462 kts | 311° |
| 2026-04-14 08:08 | 39.36227 | 21.23679 | 40128 ft | 462 kts | 312° |
| 2026-04-14 08:08 | 39.40879 | 21.17994 | 40124 ft | 463 kts | 312° |
| 2026-04-14 08:09 | 39.45570 | 21.12249 | 40098 ft | 463 kts | 311° |
| 2026-04-14 08:09 | 39.50230 | 21.06532 | 40085 ft | 463 kts | 311° |
| 2026-04-14 08:10 | 39.54915 | 21.00773 | 40072 ft | 463 kts | 311° |
| 2026-04-14 08:10 | 39.59565 | 20.95047 | 40057 ft | 463 kts | 311° |
| 2026-04-14 08:11 | 39.64242 | 20.89275 | 40052 ft | 463 kts | 312° |
| 2026-04-14 08:11 | 39.68931 | 20.83503 | 40046 ft | 464 kts | 314° |
| 2026-04-14 08:12 | 39.74019 | 20.78344 | 40056 ft | 468 kts | 319° |
| 2026-04-14 08:12 | 39.79301 | 20.73312 | 40048 ft | 469 kts | 319° |
| 2026-04-14 08:13 | 39.84582 | 20.68338 | 40049 ft | 469 kts | 319° |
| 2026-04-14 08:13 | 39.89879 | 20.63333 | 40064 ft | 469 kts | 319° |
| 2026-04-14 08:14 | 39.95157 | 20.58321 | 40038 ft | 472 kts | 319° |
| 2026-04-14 08:14 | 40.00481 | 20.53251 | 40036 ft | 473 kts | 319° |
| 2026-04-14 08:15 | 40.05673 | 20.48009 | 40036 ft | 468 kts | 312° |
| 2026-04-14 08:15 | 40.09866 | 20.41648 | 40022 ft | 463 kts | 303° |
| 2026-04-14 08:16 | 40.13692 | 20.34870 | 40021 ft | 462 kts | 301° |
| 2026-04-14 08:16 | 40.17411 | 20.28062 | 40016 ft | 462 kts | 301° |
| 2026-04-14 08:17 | 40.21178 | 20.21169 | 40004 ft | 466 kts | 301° |
| 2026-04-14 08:17 | 40.24964 | 20.14269 | 39990 ft | 465 kts | 301° |
| 2026-04-14 08:18 | 40.28733 | 20.07407 | 40005 ft | 467 kts | 302° |
| 2026-04-14 08:18 | 40.32541 | 20.00457 | 39982 ft | 468 kts | 301° |
| 2026-04-14 08:19 | 40.36320 | 19.93540 | 39985 ft | 468 kts | 301° |
| 2026-04-14 08:19 | 40.40114 | 19.86583 | 39976 ft | 468 kts | 301° |
| 2026-04-14 08:20 | 40.43901 | 19.79623 | 39986 ft | 468 kts | 301° |
| 2026-04-14 08:20 | 40.47688 | 19.72644 | 39978 ft | 468 kts | 302° |
| 2026-04-14 08:21 | 40.51449 | 19.65699 | 39979 ft | 469 kts | 302° |
| 2026-04-14 08:21 | 40.55246 | 19.58676 | 39981 ft | 469 kts | 301° |
| 2026-04-14 08:22 | 40.59006 | 19.51703 | 39983 ft | 469 kts | 301° |
| 2026-04-14 08:22 | 40.62788 | 19.44672 | 40007 ft | 470 kts | 301° |
| 2026-04-14 08:23 | 40.66575 | 19.37615 | 40000 ft | 472 kts | 301° |
| 2026-04-14 08:23 | 40.70356 | 19.30555 | 40001 ft | 472 kts | 301° |
| 2026-04-14 08:24 | 40.74146 | 19.23462 | 39995 ft | 472 kts | 301° |
| 2026-04-14 08:24 | 40.77912 | 19.16399 | 40013 ft | 472 kts | 301° |
| 2026-04-14 08:25 | 40.81701 | 19.09275 | 40020 ft | 473 kts | 301° |
| 2026-04-14 08:25 | 40.85468 | 19.02176 | 40017 ft | 474 kts | 301° |
| 2026-04-14 08:26 | 40.89269 | 18.95034 | 40014 ft | 475 kts | 303° |
| 2026-04-14 08:26 | 40.93330 | 18.88175 | 40014 ft | 476 kts | 306° |
| 2026-04-14 08:27 | 40.97559 | 18.81404 | 40014 ft | 476 kts | 306° |
| 2026-04-14 08:27 | 41.01774 | 18.74622 | 40019 ft | 476 kts | 306° |
| 2026-04-14 08:28 | 41.05941 | 18.67832 | 40011 ft | 477 kts | 306° |
| 2026-04-14 08:28 | 41.10116 | 18.60982 | 40019 ft | 477 kts | 306° |
| 2026-04-14 08:29 | 41.14288 | 18.54116 | 40011 ft | 477 kts | 306° |
| 2026-04-14 08:29 | 41.18436 | 18.47279 | 40010 ft | 477 kts | 305° |
| 2026-04-14 08:30 | 41.22588 | 18.40370 | 40006 ft | 476 kts | 302° |
| 2026-04-14 08:30 | 41.26220 | 18.33089 | 40004 ft | 475 kts | 299° |
| 2026-04-14 08:31 | 41.29747 | 18.25636 | 40001 ft | 475 kts | 298° |
| 2026-04-14 08:31 | 41.34397 | 18.15672 | 39997 ft | 475 kts | 298° |
| 2026-04-14 08:32 | 41.37871 | 18.08223 | 39996 ft | 475 kts | 298° |
| 2026-04-14 08:32 | 41.41360 | 18.00741 | 39992 ft | 475 kts | 298° |
| 2026-04-14 08:33 | 41.44853 | 17.93236 | 39990 ft | 475 kts | 298° |
| 2026-04-14 08:33 | 41.48319 | 17.85769 | 39982 ft | 475 kts | 298° |
| 2026-04-14 08:34 | 41.51800 | 17.78251 | 39980 ft | 475 kts | 298° |
| 2026-04-14 08:34 | 41.55253 | 17.70775 | 39977 ft | 475 kts | 298° |
| 2026-04-14 08:35 | 41.58731 | 17.63224 | 39974 ft | 476 kts | 298° |
| 2026-04-14 08:35 | 41.62181 | 17.55718 | 39971 ft | 476 kts | 298° |
| 2026-04-14 08:36 | 41.65644 | 17.48153 | 39964 ft | 476 kts | 298° |
| 2026-04-14 08:36 | 41.69097 | 17.40586 | 39969 ft | 476 kts | 298° |
| 2026-04-14 08:37 | 41.72552 | 17.32997 | 39965 ft | 477 kts | 298° |
| 2026-04-14 08:37 | 41.75985 | 17.25438 | 39955 ft | 477 kts | 298° |
| 2026-04-14 08:38 | 41.79434 | 17.17823 | 39946 ft | 477 kts | 298° |
| 2026-04-14 08:38 | 41.82882 | 17.10194 | 39949 ft | 477 kts | 298° |
| 2026-04-14 08:39 | 41.86295 | 17.02621 | 39948 ft | 477 kts | 298° |
| 2026-04-14 08:39 | 41.89740 | 16.94958 | 39932 ft | 479 kts | 298° |
| 2026-04-14 08:40 | 41.93166 | 16.87321 | 39935 ft | 479 kts | 298° |
| 2026-04-14 08:40 | 41.96613 | 16.79624 | 39942 ft | 479 kts | 298° |
| 2026-04-14 08:41 | 42.00028 | 16.71984 | 39936 ft | 479 kts | 298° |
| 2026-04-14 08:41 | 42.03465 | 16.64276 | 39943 ft | 480 kts | 298° |
| 2026-04-14 08:42 | 42.06906 | 16.56536 | 39944 ft | 480 kts | 298° |
| 2026-04-14 08:42 | 42.10317 | 16.48843 | 39918 ft | 480 kts | 298° |
| 2026-04-14 08:43 | 42.13742 | 16.41101 | 39927 ft | 480 kts | 298° |
| 2026-04-14 08:43 | 42.17165 | 16.33342 | 39917 ft | 480 kts | 298° |
| 2026-04-14 08:44 | 42.20563 | 16.25619 | 39937 ft | 481 kts | 298° |
| 2026-04-14 08:44 | 42.23981 | 16.17829 | 39911 ft | 482 kts | 298° |
| 2026-04-14 08:45 | 42.27725 | 16.10355 | 39930 ft | 485 kts | 307° |
| 2026-04-14 08:45 | 42.32179 | 16.03481 | 39908 ft | 486 kts | 309° |
| 2026-04-14 08:46 | 42.36742 | 15.96756 | 39910 ft | 486 kts | 310° |
| 2026-04-14 08:46 | 42.41346 | 15.89998 | 39909 ft | 487 kts | 310° |
| 2026-04-14 08:47 | 42.45898 | 15.83274 | 39909 ft | 487 kts | 309° |
| 2026-04-14 08:47 | 42.50470 | 15.76471 | 39906 ft | 487 kts | 309° |
| 2026-04-14 08:48 | 42.54958 | 15.69652 | 39909 ft | 486 kts | 309° |
| 2026-04-14 08:48 | 42.59454 | 15.62755 | 39908 ft | 486 kts | 309° |
| 2026-04-14 08:49 | 42.63915 | 15.55902 | 39906 ft | 487 kts | 309° |
| 2026-04-14 08:49 | 42.68408 | 15.48995 | 39900 ft | 487 kts | 309° |
| 2026-04-14 08:50 | 42.72878 | 15.42113 | 39900 ft | 487 kts | 309° |
| 2026-04-14 08:50 | 42.77367 | 15.35184 | 39897 ft | 487 kts | 308° |
| 2026-04-14 08:51 | 42.81849 | 15.28250 | 39903 ft | 486 kts | 308° |
| 2026-04-14 08:51 | 42.86291 | 15.21361 | 39892 ft | 486 kts | 308° |
| 2026-04-14 08:52 | 42.90766 | 15.14405 | 39897 ft | 486 kts | 308° |
| 2026-04-14 08:52 | 42.95228 | 15.07451 | 39897 ft | 486 kts | 308° |
| 2026-04-14 08:53 | 42.99658 | 15.00532 | 39897 ft | 486 kts | 308° |
| 2026-04-14 08:53 | 43.04119 | 14.93547 | 39897 ft | 486 kts | 308° |
| 2026-04-14 08:54 | 43.08572 | 14.86557 | 39894 ft | 486 kts | 308° |
| 2026-04-14 08:54 | 43.12980 | 14.79622 | 39895 ft | 485 kts | 308° |
| 2026-04-14 08:55 | 43.17419 | 14.72622 | 39896 ft | 486 kts | 308° |
| 2026-04-14 08:55 | 43.21852 | 14.65613 | 39900 ft | 486 kts | 308° |
| 2026-04-14 08:56 | 43.26283 | 14.58591 | 39896 ft | 485 kts | 308° |
| 2026-04-14 08:56 | 43.30677 | 14.51611 | 39896 ft | 485 kts | 308° |
| 2026-04-14 08:57 | 43.35100 | 14.44568 | 39896 ft | 485 kts | 308° |
| 2026-04-14 08:57 | 43.39480 | 14.37576 | 39895 ft | 485 kts | 308° |
| 2026-04-14 08:58 | 43.43886 | 14.30526 | 39896 ft | 485 kts | 308° |
| 2026-04-14 08:58 | 43.48435 | 14.23634 | 39897 ft | 487 kts | 316° |
| 2026-04-14 08:59 | 43.53724 | 14.17798 | 39903 ft | 489 kts | 321° |
| 2026-04-14 08:59 | 43.59212 | 14.12163 | 39903 ft | 492 kts | 321° |
| 2026-04-14 09:00 | 43.64747 | 14.06551 | 39906 ft | 493 kts | 321° |
| 2026-04-14 09:00 | 43.70267 | 14.00918 | 39905 ft | 493 kts | 321° |
| 2026-04-14 09:01 | 43.75745 | 13.95292 | 39903 ft | 493 kts | 321° |
| 2026-04-14 09:01 | 43.81257 | 13.89607 | 39907 ft | 494 kts | 321° |
| 2026-04-14 09:02 | 43.86775 | 13.83901 | 39910 ft | 494 kts | 321° |
| 2026-04-14 09:02 | 43.92293 | 13.78185 | 39910 ft | 494 kts | 321° |
| 2026-04-14 09:03 | 43.97769 | 13.72499 | 39911 ft | 494 kts | 321° |
| 2026-04-14 09:03 | 44.03293 | 13.66750 | 39911 ft | 494 kts | 321° |
| 2026-04-14 09:04 | 44.08765 | 13.61042 | 39908 ft | 494 kts | 321° |
| 2026-04-14 09:04 | 44.14267 | 13.55287 | 39910 ft | 494 kts | 321° |
| 2026-04-14 09:05 | 44.19731 | 13.49560 | 39923 ft | 494 kts | 321° |
| 2026-04-14 09:05 | 44.25224 | 13.43788 | 39908 ft | 493 kts | 321° |
| 2026-04-14 09:06 | 44.30707 | 13.38012 | 39905 ft | 492 kts | 321° |
| 2026-04-14 09:06 | 44.36183 | 13.32232 | 39903 ft | 492 kts | 321° |
| 2026-04-14 09:07 | 44.41623 | 13.26475 | 39908 ft | 492 kts | 321° |
| 2026-04-14 09:07 | 44.47093 | 13.20672 | 39909 ft | 493 kts | 321° |
| 2026-04-14 09:08 | 44.52564 | 13.14854 | 39911 ft | 493 kts | 321° |
| 2026-04-14 09:08 | 44.58021 | 13.09036 | 39911 ft | 492 kts | 321° |
| 2026-04-14 09:09 | 44.63443 | 13.03242 | 39914 ft | 492 kts | 321° |
| 2026-04-14 09:09 | 44.68912 | 12.97384 | 39914 ft | 492 kts | 321° |
| 2026-04-14 09:10 | 44.74340 | 12.91556 | 39922 ft | 493 kts | 321° |
| 2026-04-14 09:10 | 44.79808 | 12.85670 | 39923 ft | 495 kts | 321° |
| 2026-04-14 09:11 | 44.85280 | 12.79765 | 39924 ft | 494 kts | 321° |
| 2026-04-14 09:11 | 44.90748 | 12.73846 | 39930 ft | 495 kts | 321° |
| 2026-04-14 09:12 | 44.96181 | 12.67956 | 39933 ft | 496 kts | 321° |
| 2026-04-14 09:12 | 45.01674 | 12.61982 | 39936 ft | 498 kts | 321° |
| 2026-04-14 09:13 | 45.06245 | 12.57004 | 39931 ft | 499 kts | 321° |
| 2026-04-14 09:13 | 45.11795 | 12.51047 | 39936 ft | 499 kts | 326° |
| 2026-04-14 09:14 | 45.17981 | 12.46582 | 39943 ft | 499 kts | 335° |
| 2026-04-14 09:14 | 45.24359 | 12.42753 | 39948 ft | 501 kts | 336° |
| 2026-04-14 09:15 | 45.30819 | 12.39016 | 39957 ft | 500 kts | 337° |
| 2026-04-14 09:15 | 45.37279 | 12.35263 | 39963 ft | 501 kts | 336° |
| 2026-04-14 09:16 | 45.43695 | 12.31497 | 39963 ft | 501 kts | 337° |
| 2026-04-14 09:16 | 45.50141 | 12.27691 | 39963 ft | 500 kts | 336° |
| 2026-04-14 09:17 | 45.56579 | 12.23878 | 39967 ft | 501 kts | 337° |
| 2026-04-14 09:17 | 45.63004 | 12.20064 | 39964 ft | 499 kts | 337° |
| 2026-04-14 09:18 | 45.69417 | 12.16249 | 39964 ft | 498 kts | 337° |
| 2026-04-14 09:18 | 45.75771 | 12.12460 | 39957 ft | 496 kts | 336° |
| 2026-04-14 09:19 | 45.82175 | 12.08631 | 39959 ft | 498 kts | 337° |
| 2026-04-14 09:19 | 45.88573 | 12.04796 | 39961 ft | 497 kts | 337° |
| 2026-04-14 09:20 | 45.94926 | 12.00978 | 39959 ft | 497 kts | 336° |
| 2026-04-14 09:20 | 46.01319 | 11.97127 | 39960 ft | 495 kts | 336° |
| 2026-04-14 09:21 | 46.07651 | 11.93304 | 39958 ft | 496 kts | 336° |
| 2026-04-14 09:21 | 46.14040 | 11.89435 | 39959 ft | 497 kts | 336° |
| 2026-04-14 09:22 | 46.20423 | 11.85562 | 39960 ft | 496 kts | 336° |
| 2026-04-14 09:22 | 46.26770 | 11.81700 | 39956 ft | 497 kts | 336° |
| 2026-04-14 09:23 | 46.32889 | 11.77967 | 39962 ft | 497 kts | 336° |
| 2026-04-14 09:23 | 46.39268 | 11.74066 | 39955 ft | 497 kts | 336° |
| 2026-04-14 09:24 | 46.45644 | 11.70157 | 39967 ft | 496 kts | 336° |
| 2026-04-14 09:24 | 46.51960 | 11.66276 | 39971 ft | 496 kts | 336° |
| 2026-04-14 09:25 | 46.58339 | 11.62347 | 39973 ft | 496 kts | 336° |
| 2026-04-14 09:25 | 46.64704 | 11.58416 | 39969 ft | 496 kts | 336° |
| 2026-04-14 09:26 | 46.71077 | 11.54469 | 39974 ft | 497 kts | 336° |
| 2026-04-14 09:26 | 46.77407 | 11.50538 | 39983 ft | 496 kts | 336° |
| 2026-04-14 09:27 | 46.83783 | 11.46571 | 40004 ft | 494 kts | 336° |
| 2026-04-14 09:27 | 46.90064 | 11.42651 | 40016 ft | 493 kts | 335° |
| 2026-04-14 09:28 | 46.96481 | 11.39127 | 40020 ft | 493 kts | 346° |
| 2026-04-14 09:28 | 47.03321 | 11.38245 | 40041 ft | 494 kts | 0° |
| 2026-04-14 09:29 | 47.10161 | 11.38740 | 40056 ft | 495 kts | 3° |
| 2026-04-14 09:29 | 47.17054 | 11.39503 | 40101 ft | 496 kts | 4° |
| 2026-04-14 09:30 | 47.23943 | 11.40216 | 40105 ft | 496 kts | 1° |
| 2026-04-14 09:30 | 47.30839 | 11.40375 | 40101 ft | 494 kts | 359° |
| 2026-04-14 09:31 | 47.37673 | 11.40308 | 40103 ft | 494 kts | 358° |
| 2026-04-14 09:31 | 47.44568 | 11.40204 | 40107 ft | 494 kts | 358° |
| 2026-04-14 09:32 | 47.51432 | 11.40099 | 40109 ft | 493 kts | 358° |
| 2026-04-14 09:33 | 47.61741 | 11.39967 | 40118 ft | 493 kts | 358° |
| 2026-04-14 09:33 | 47.68553 | 11.39328 | 40120 ft | 492 kts | 354° |
| 2026-04-14 09:34 | 47.75377 | 11.38313 | 40122 ft | 491 kts | 353° |
| 2026-04-14 09:34 | 47.82176 | 11.37298 | 40124 ft | 490 kts | 353° |
| 2026-04-14 09:35 | 47.88980 | 11.36442 | 40128 ft | 491 kts | 355° |
| 2026-04-14 09:35 | 47.95771 | 11.35866 | 40128 ft | 492 kts | 356° |
| 2026-04-14 09:36 | 48.02627 | 11.35333 | 40129 ft | 492 kts | 356° |
| 2026-04-14 09:36 | 48.09473 | 11.34616 | 40136 ft | 492 kts | 352° |
| 2026-04-14 09:37 | 48.16222 | 11.33334 | 40129 ft | 492 kts | 351° |
| 2026-04-14 09:37 | 48.23033 | 11.31904 | 40125 ft | 492 kts | 351° |
| 2026-04-14 09:38 | 48.29804 | 11.30602 | 40122 ft | 493 kts | 352° |
| 2026-04-14 09:38 | 48.36643 | 11.29514 | 40118 ft | 493 kts | 353° |
| 2026-04-14 09:39 | 48.43477 | 11.28470 | 40112 ft | 493 kts | 353° |
| 2026-04-14 09:39 | 48.50278 | 11.27411 | 40119 ft | 493 kts | 353° |
| 2026-04-14 09:40 | 48.57109 | 11.26329 | 40119 ft | 493 kts | 353° |
| 2026-04-14 09:40 | 48.63938 | 11.25239 | 40119 ft | 493 kts | 353° |
| 2026-04-14 09:41 | 48.70784 | 11.24142 | 40129 ft | 494 kts | 353° |
| 2026-04-14 09:41 | 48.77594 | 11.23047 | 40131 ft | 494 kts | 353° |
| 2026-04-14 09:42 | 48.84414 | 11.21629 | 40128 ft | 493 kts | 345° |
| 2026-04-14 09:42 | 48.90992 | 11.18681 | 40114 ft | 492 kts | 341° |
| 2026-04-14 09:43 | 48.97469 | 11.15425 | 40116 ft | 492 kts | 340° |
| 2026-04-14 09:43 | 49.03979 | 11.12068 | 40124 ft | 493 kts | 339° |
| 2026-04-14 09:44 | 49.10495 | 11.08717 | 40117 ft | 493 kts | 340° |
| 2026-04-14 09:44 | 49.16668 | 11.04372 | 40105 ft | 490 kts | 325° |
| 2026-04-14 09:45 | 49.21598 | 10.97297 | 40131 ft | 486 kts | 305° |
| 2026-04-14 09:45 | 49.25378 | 10.88710 | 40136 ft | 486 kts | 301° |
| 2026-04-14 09:46 | 49.28917 | 10.79888 | 40124 ft | 485 kts | 300° |
| 2026-04-14 09:46 | 49.32415 | 10.71111 | 40293 ft | 475 kts | 301° |
| 2026-04-14 09:46 | 49.34134 | 10.66840 | 40944 ft | 464 kts | 301° |
| 2026-04-14 09:47 | 49.35822 | 10.62675 | 41592 ft | 454 kts | 301° |
| 2026-04-14 09:47 | 49.37481 | 10.58609 | 42221 ft | 443 kts | 301° |
| 2026-04-14 09:47 | 49.39113 | 10.54648 | 42855 ft | 432 kts | 301° |
| 2026-04-14 09:47 | 49.40713 | 10.50800 | 43464 ft | 422 kts | 301° |
| 2026-04-14 09:48 | 49.42263 | 10.47100 | 44013 ft | 412 kts | 301° |
| 2026-04-14 09:48 | 49.43797 | 10.43443 | 44463 ft | 403 kts | 301° |
| 2026-04-14 09:48 | 49.45288 | 10.39894 | 44776 ft | 385 kts | 301° |
| 2026-04-14 09:48 | 49.46713 | 10.36504 | 44887 ft | 370 kts | 302° |
| 2026-04-14 09:49 | 49.48102 | 10.33202 | 44267 ft | 375 kts | 302° |
| 2026-04-14 09:49 | 49.49587 | 10.29666 | 42878 ft | 409 kts | 302° |
| 2026-04-14 09:49 | 49.51109 | 10.25822 | 42049 ft | 429 kts | 300° |
| 2026-04-14 09:49 | 49.52638 | 10.21794 | 40820 ft | 441 kts | 300° |
| 2026-04-14 09:50 | 49.54214 | 10.17667 | 39456 ft | 451 kts | 300° |
| 2026-04-14 09:50 | 49.55837 | 10.13464 | 37756 ft | 463 kts | 301° |
| 2026-04-14 09:50 | 49.57485 | 10.09227 | 36208 ft | 469 kts | 301° |
| 2026-04-14 09:50 | 49.59176 | 10.04892 | 34676 ft | 472 kts | 301° |
| 2026-04-14 09:51 | 49.60877 | 10.00535 | 33049 ft | 474 kts | 301° |
| 2026-04-14 09:51 | 49.62568 | 9.96200 | 31589 ft | 469 kts | 300° |
| 2026-04-14 09:51 | 49.64242 | 9.91906 | 29998 ft | 466 kts | 299° |
| 2026-04-14 09:51 | 49.65907 | 9.87629 | 28433 ft | 460 kts | 300° |
| 2026-04-14 09:52 | 49.67537 | 9.83432 | 27072 ft | 451 kts | 300° |
| 2026-04-14 09:52 | 49.69135 | 9.79315 | 25746 ft | 442 kts | 300° |
| 2026-04-14 09:52 | 49.70175 | 9.76630 | 24902 ft | 437 kts | 300° |
| 2026-04-14 09:52 | 49.71722 | 9.72634 | 23666 ft | 429 kts | 300° |
| 2026-04-14 09:53 | 49.73239 | 9.68706 | 22237 ft | 423 kts | 299° |
| 2026-04-14 09:53 | 49.74746 | 9.64799 | 21251 ft | 421 kts | 299° |
| 2026-04-14 09:53 | 49.76241 | 9.60919 | 20625 ft | 417 kts | 299° |
| 2026-04-14 09:53 | 49.77716 | 9.57083 | 19995 ft | 412 kts | 299° |
| 2026-04-14 09:54 | 49.79174 | 9.53289 | 19327 ft | 408 kts | 299° |
| 2026-04-14 09:54 | 49.80615 | 9.49532 | 18764 ft | 402 kts | 299° |
| 2026-04-14 09:54 | 49.82037 | 9.45822 | 18100 ft | 398 kts | 299° |
| 2026-04-14 09:54 | 49.83443 | 9.42147 | 17372 ft | 395 kts | 299° |
| 2026-04-14 09:55 | 49.84836 | 9.38501 | 16675 ft | 391 kts | 298° |
| 2026-04-14 09:55 | 49.86000 | 9.34800 | 15978 ft | 385 kts | 287° |
| 2026-04-14 09:55 | 49.86688 | 9.30813 | 15307 ft | 381 kts | 285° |
| 2026-04-14 09:55 | 49.87495 | 9.26915 | 14649 ft | 377 kts | 285° |
| 2026-04-14 09:56 | 49.88247 | 9.23041 | 14034 ft | 374 kts | 286° |
| 2026-04-14 09:56 | 49.89014 | 9.19202 | 13325 ft | 370 kts | 286° |
| 2026-04-14 09:56 | 49.89783 | 9.15406 | 12627 ft | 367 kts | 286° |
| 2026-04-14 09:56 | 49.90555 | 9.11619 | 11747 ft | 368 kts | 286° |
| 2026-04-14 09:57 | 49.91329 | 9.07838 | 11004 ft | 366 kts | 287° |
| 2026-04-14 09:57 | 49.92089 | 9.04102 | 10313 ft | 362 kts | 286° |
| 2026-04-14 09:57 | 49.92810 | 9.00383 | 9581 ft | 358 kts | 286° |
| 2026-04-14 09:57 | 49.93513 | 8.96691 | 8777 ft | 355 kts | 286° |
| 2026-04-14 09:58 | 49.94203 | 8.93059 | 8310 ft | 344 kts | 287° |
| 2026-04-14 09:58 | 49.94861 | 8.89593 | 8193 ft | 324 kts | 287° |
| 2026-04-14 09:58 | 49.95480 | 8.86329 | 8167 ft | 308 kts | 287° |
| 2026-04-14 09:58 | 49.96075 | 8.83187 | 8173 ft | 306 kts | 287° |
| 2026-04-14 09:59 | 49.96674 | 8.80025 | 8172 ft | 306 kts | 287° |
| 2026-04-14 09:59 | 49.97278 | 8.76829 | 8185 ft | 306 kts | 287° |
| 2026-04-14 09:59 | 49.97832 | 8.73648 | 8178 ft | 305 kts | 281° |
| 2026-04-14 09:59 | 49.97844 | 8.70370 | 8189 ft | 307 kts | 260° |
| 2026-04-14 10:00 | 49.97231 | 8.67187 | 8185 ft | 307 kts | 251° |
| 2026-04-14 10:00 | 49.96477 | 8.64074 | 8186 ft | 308 kts | 250° |
| 2026-04-14 10:00 | 49.95706 | 8.60967 | 8176 ft | 308 kts | 250° |
| 2026-04-14 10:00 | 49.94937 | 8.57841 | 8184 ft | 310 kts | 251° |
| 2026-04-14 10:01 | 49.94169 | 8.54697 | 8186 ft | 313 kts | 250° |
| 2026-04-14 10:01 | 49.93409 | 8.51571 | 8184 ft | 313 kts | 251° |
| 2026-04-14 10:01 | 49.92641 | 8.48402 | 8183 ft | 313 kts | 250° |
| 2026-04-14 10:01 | 49.91874 | 8.45230 | 8153 ft | 310 kts | 250° |
| 2026-04-14 10:02 | 49.91119 | 8.42104 | 8160 ft | 309 kts | 250° |
| 2026-04-14 10:02 | 49.90364 | 8.38982 | 8153 ft | 308 kts | 250° |
| 2026-04-14 10:02 | 49.89614 | 8.35883 | 8162 ft | 298 kts | 251° |
| 2026-04-14 10:02 | 49.88904 | 8.32959 | 8172 ft | 281 kts | 250° |
| 2026-04-14 10:03 | 49.88232 | 8.30191 | 8164 ft | 276 kts | 251° |
| 2026-04-14 10:03 | 49.87554 | 8.27397 | 7825 ft | 277 kts | 250° |
| 2026-04-14 10:03 | 49.86872 | 8.24590 | 7400 ft | 277 kts | 251° |
| 2026-04-14 10:03 | 49.86191 | 8.21795 | 7018 ft | 276 kts | 250° |
| 2026-04-14 10:04 | 49.85521 | 8.19049 | 6642 ft | 274 kts | 251° |
| 2026-04-14 10:04 | 49.84848 | 8.16286 | 6251 ft | 274 kts | 251° |
| 2026-04-14 10:04 | 49.84174 | 8.13521 | 5811 ft | 274 kts | 251° |
| 2026-04-14 10:04 | 49.83639 | 8.10700 | 5389 ft | 271 kts | 267° |
| 2026-04-14 10:05 | 49.83895 | 8.07875 | 5050 ft | 262 kts | 295° |
| 2026-04-14 10:05 | 49.84945 | 8.05696 | 4904 ft | 248 kts | 324° |
| 2026-04-14 10:05 | 49.86469 | 8.04666 | 4731 ft | 237 kts | 353° |
| 2026-04-14 10:05 | 49.88069 | 8.04983 | 4471 ft | 232 kts | 23° |
| 2026-04-14 10:06 | 49.89391 | 8.06397 | 4202 ft | 231 kts | 40° |
| 2026-04-14 10:06 | 49.90550 | 8.08109 | 4010 ft | 230 kts | 43° |
| 2026-04-14 10:06 | 49.91673 | 8.09834 | 3990 ft | 230 kts | 44° |
| 2026-04-14 10:06 | 49.92670 | 8.11789 | 3993 ft | 232 kts | 57° |
| 2026-04-14 10:07 | 49.93344 | 8.14032 | 3994 ft | 226 kts | 66° |
| 2026-04-14 10:07 | 49.93875 | 8.16293 | 3992 ft | 217 kts | 67° |
| 2026-04-14 10:07 | 49.94374 | 8.18427 | 3988 ft | 203 kts | 67° |
| 2026-04-14 10:07 | 49.94842 | 8.20423 | 3988 ft | 190 kts | 66° |
| 2026-04-14 10:08 | 49.95287 | 8.22304 | 4013 ft | 182 kts | 66° |
| 2026-04-14 10:08 | 49.95728 | 8.24139 | 4008 ft | 181 kts | 66° |
| 2026-04-14 10:08 | 49.96171 | 8.25971 | 3999 ft | 181 kts | 65° |
| 2026-04-14 10:08 | 49.96619 | 8.27809 | 3917 ft | 181 kts | 65° |
| 2026-04-14 10:09 | 49.97057 | 8.29621 | 3672 ft | 182 kts | 66° |
| 2026-04-14 10:09 | 49.97500 | 8.31475 | 3399 ft | 184 kts | 66° |
| 2026-04-14 10:09 | 49.97947 | 8.33347 | 3121 ft | 185 kts | 66° |
| 2026-04-14 10:09 | 49.98394 | 8.35214 | 2862 ft | 182 kts | 67° |
| 2026-04-14 10:10 | 49.98835 | 8.37054 | 2601 ft | 182 kts | 67° |
| 2026-04-14 10:10 | 49.99274 | 8.38891 | 2369 ft | 180 kts | 66° |
| 2026-04-14 10:10 | 49.99702 | 8.40680 | 2099 ft | 171 kts | 67° |
| 2026-04-14 10:10 | 50.00100 | 8.42344 | 1866 ft | 157 kts | 68° |
| 2026-04-14 10:11 | 50.00463 | 8.43864 | 1664 ft | 143 kts | 66° |
| 2026-04-14 10:11 | 50.00804 | 8.45284 | 1473 ft | 139 kts | 66° |
| 2026-04-14 10:11 | 50.01138 | 8.46678 | 1299 ft | 139 kts | 66° |
| 2026-04-14 10:11 | 50.01473 | 8.48094 | 1095 ft | 139 kts | 68° |
| 2026-04-14 10:12 | 50.01803 | 8.49507 | 895 ft | 139 kts | 68° |
| 2026-04-14 10:12 | 50.02150 | 8.50905 | 704 ft | 138 kts | 66° |
| 2026-04-14 10:12 | 50.02497 | 8.52319 | 538 ft | 141 kts | 68° |
| 2026-04-14 10:12 | 50.02837 | 8.53754 | 367 ft | 139 kts | 66° |
| 2026-04-14 10:13 | 50.03153 | 8.55084 | 357 ft | 118 kts | 69° |
| 2026-04-14 10:13 | 50.03370 | 8.55991 | 356 ft | 65 kts | 70° |
| 2026-04-14 10:13 | 50.03514 | 8.56336 | 362 ft | 32 kts | 44° |
| 2026-04-14 10:13 | 50.03611 | 8.56466 | 361 ft | 12 kts | 39° |
| 2026-04-14 10:14 | 50.03632 | 8.56493 | 359 ft | 1 kts | 39° |
| 2026-04-14 10:14 | 50.03638 | 8.56501 | 362 ft | 2 kts | 39° |
| 2026-04-14 10:14 | 50.03661 | 8.56531 | 361 ft | 8 kts | 39° |
| 2026-04-14 10:14 | 50.03729 | 8.56616 | 365 ft | 16 kts | 39° |
| 2026-04-14 10:15 | 50.03796 | 8.56761 | 366 ft | 17 kts | 64° |
| 2026-04-14 10:15 | 50.03843 | 8.56940 | 363 ft | 19 kts | 68° |
| 2026-04-14 10:15 | 50.03887 | 8.57126 | 370 ft | 18 kts | 69° |
| 2026-04-14 10:15 | 50.03932 | 8.57308 | 374 ft | 18 kts | 69° |
| 2026-04-14 10:16 | 50.03975 | 8.57488 | 372 ft | 18 kts | 69° |
| 2026-04-14 10:16 | 50.04021 | 8.57682 | 376 ft | 20 kts | 70° |
| 2026-04-14 10:16 | 50.04071 | 8.57892 | 376 ft | 22 kts | 69° |
| 2026-04-14 10:16 | 50.04127 | 8.58097 | 376 ft | 17 kts | 54° |
| 2026-04-14 10:17 | 50.04216 | 8.58195 | 373 ft | 10 kts | 17° |
| 2026-04-14 10:17 | 50.04276 | 8.58205 | 375 ft | 9 kts | 354° |
| 2026-04-14 10:17 | 50.04342 | 8.58172 | 374 ft | 11 kts | 340° |
| 2026-04-14 10:17 | 50.04418 | 8.58130 | 375 ft | 13 kts | 340° |
| 2026-04-14 10:18 | 50.04634 | 8.58005 | 368 ft | 17 kts | 339° |
| 2026-04-14 10:18 | 50.04722 | 8.57955 | 369 ft | 10 kts | 347° |
| 2026-04-14 10:18 | 50.04783 | 8.58001 | 370 ft | 11 kts | 53° |
| 2026-04-14 10:19 | 50.04810 | 8.58084 | 366 ft | 0 kts | 62° |
| 2026-04-14 10:19 | 50.04814 | 8.58090 | 366 ft | 2 kts | 49° |
| 2026-04-14 10:19 | 50.04833 | 8.58106 | 368 ft | 3 kts | 9° |
| 2026-04-14 10:19 | 50.04858 | 8.58094 | 369 ft | 4 kts | 340° |
| 2026-04-14 10:20 | 50.04892 | 8.58075 | 367 ft | 0 kts | 340° |
| 2026-04-14 10:20 | 50.04901 | 8.58069 | 368 ft | 3 kts | 339° |
| 2026-04-14 10:20 | 50.04903 | 8.58068 | 366 ft | 0 kts | 339° |